LOT6RD UACC-EPWA
Flight info
| Callsign | LOT6RD |
|---|---|
| Flight time | 6h 57m |
| Altitude | 36000 |
| Route | VETUB7G VETUB P574 OGANU N55 MASAV N161 GASBI/N0467F360 N161 LEYLA N644 TETRO DCT SARPI UM10 GOKPA UL746 ODERO DCT KARIL DCT KEKED DCT LENOV DCT ORTEB DCT KONZI DCT LOGDA |
| Aircraft | B38M/M-SDE1FGHILORVWXY/HB1 |
Departure
| Time | 2026-04-25 04:57 |
|---|---|
| Airport | Nursultan Nazarbayev International Airport (UACC) |
Arrival
| Time | 2026-04-25 11:54 |
|---|---|
| Airport | Warsaw Chopin Airport (EPWA) |
| Time | Latitude | Longitude | Altitude | Speed | Heading |
|---|---|---|---|---|---|
| 2026-04-25 04:51 | 51.02739 | 71.46619 | 1163 ft | 0 kts | 44° |
| 2026-04-25 04:52 | 51.02751 | 71.46638 | 1163 ft | 6 kts | 44° |
| 2026-04-25 04:52 | 51.02802 | 71.46716 | 1166 ft | 15 kts | 45° |
| 2026-04-25 04:53 | 51.02781 | 71.46886 | 1165 ft | 21 kts | 118° |
| 2026-04-25 04:53 | 51.02844 | 71.47074 | 1165 ft | 21 kts | 45° |
| 2026-04-25 04:53 | 51.02949 | 71.47240 | 1166 ft | 21 kts | 45° |
| 2026-04-25 04:53 | 51.03056 | 71.47407 | 1166 ft | 22 kts | 43° |
| 2026-04-25 04:54 | 51.03166 | 71.47572 | 1166 ft | 22 kts | 45° |
| 2026-04-25 04:54 | 51.03273 | 71.47745 | 1166 ft | 22 kts | 46° |
| 2026-04-25 04:54 | 51.03382 | 71.47922 | 1166 ft | 22 kts | 40° |
| 2026-04-25 04:54 | 51.03508 | 71.48068 | 1166 ft | 23 kts | 42° |
| 2026-04-25 04:55 | 51.03621 | 71.48243 | 1166 ft | 23 kts | 44° |
| 2026-04-25 04:55 | 51.03620 | 71.48323 | 1165 ft | 0 kts | 165° |
| 2026-04-25 04:55 | 51.03619 | 71.48323 | 1165 ft | 0 kts | 175° |
| 2026-04-25 04:55 | 51.03576 | 71.48311 | 1165 ft | 13 kts | 189° |
| 2026-04-25 04:56 | 51.03445 | 71.48282 | 1165 ft | 24 kts | 177° |
| 2026-04-25 04:56 | 51.03277 | 71.48217 | 1168 ft | 41 kts | 225° |
| 2026-04-25 04:56 | 51.02915 | 71.47652 | 1169 ft | 104 kts | 225° |
| 2026-04-25 04:56 | 51.02264 | 71.46639 | 1168 ft | 156 kts | 224° |
| 2026-04-25 04:57 | 51.01441 | 71.45317 | 1453 ft | 173 kts | 222° |
| 2026-04-25 04:57 | 51.00612 | 71.44045 | 2250 ft | 169 kts | 221° |
| 2026-04-25 04:57 | 50.99765 | 71.42692 | 2994 ft | 173 kts | 222° |
| 2026-04-25 04:57 | 50.98874 | 71.41268 | 3532 ft | 192 kts | 224° |
| 2026-04-25 04:58 | 50.97879 | 71.39681 | 3863 ft | 214 kts | 224° |
| 2026-04-25 04:58 | 50.96794 | 71.37955 | 4367 ft | 222 kts | 225° |
| 2026-04-25 04:58 | 50.95930 | 71.35911 | 5072 ft | 229 kts | 246° |
| 2026-04-25 04:58 | 50.95672 | 71.33411 | 5929 ft | 234 kts | 268° |
| 2026-04-25 04:59 | 50.96071 | 71.30795 | 6444 ft | 257 kts | 287° |
| 2026-04-25 04:59 | 50.96681 | 71.28053 | 6932 ft | 268 kts | 276° |
| 2026-04-25 04:59 | 50.96676 | 71.25186 | 7770 ft | 258 kts | 254° |
| 2026-04-25 04:59 | 50.96050 | 71.22529 | 8473 ft | 260 kts | 244° |
| 2026-04-25 05:00 | 50.95319 | 71.19887 | 9220 ft | 262 kts | 244° |
| 2026-04-25 05:00 | 50.94592 | 71.17210 | 9974 ft | 265 kts | 245° |
| 2026-04-25 05:00 | 50.93854 | 71.14474 | 10437 ft | 278 kts | 245° |
| 2026-04-25 05:00 | 50.93077 | 71.11551 | 10682 ft | 297 kts | 245° |
| 2026-04-25 05:01 | 50.92251 | 71.08431 | 10871 ft | 317 kts | 246° |
| 2026-04-25 05:01 | 50.91371 | 71.05107 | 11023 ft | 337 kts | 246° |
| 2026-04-25 05:01 | 50.90452 | 71.01637 | 11101 ft | 355 kts | 246° |
| 2026-04-25 05:01 | 50.89474 | 70.97957 | 11281 ft | 369 kts | 246° |
| 2026-04-25 05:02 | 50.88467 | 70.94196 | 11831 ft | 371 kts | 246° |
| 2026-04-25 05:02 | 50.87449 | 70.90415 | 12356 ft | 374 kts | 245° |
| 2026-04-25 05:02 | 50.86421 | 70.86610 | 12859 ft | 378 kts | 245° |
| 2026-04-25 05:02 | 50.85383 | 70.82773 | 13354 ft | 381 kts | 245° |
| 2026-04-25 05:03 | 50.84336 | 70.78909 | 13844 ft | 383 kts | 245° |
| 2026-04-25 05:03 | 50.83281 | 70.75024 | 14303 ft | 385 kts | 245° |
| 2026-04-25 05:03 | 50.82216 | 70.71112 | 14735 ft | 388 kts | 245° |
| 2026-04-25 05:03 | 50.81144 | 70.67176 | 15159 ft | 390 kts | 245° |
| 2026-04-25 05:04 | 50.80066 | 70.63228 | 15605 ft | 392 kts | 245° |
| 2026-04-25 05:04 | 50.78979 | 70.59253 | 16007 ft | 394 kts | 245° |
| 2026-04-25 05:04 | 50.77884 | 70.55256 | 16387 ft | 397 kts | 245° |
| 2026-04-25 05:04 | 50.76783 | 70.51245 | 16783 ft | 399 kts | 245° |
| 2026-04-25 05:05 | 50.75675 | 70.47216 | 17175 ft | 401 kts | 245° |
| 2026-04-25 05:05 | 50.74559 | 70.43164 | 17515 ft | 403 kts | 245° |
| 2026-04-25 05:05 | 50.73436 | 70.39095 | 17895 ft | 405 kts | 245° |
| 2026-04-25 05:05 | 50.72308 | 70.35012 | 18257 ft | 407 kts | 245° |
| 2026-04-25 05:06 | 50.71172 | 70.30908 | 18569 ft | 409 kts | 245° |
| 2026-04-25 05:06 | 50.70029 | 70.26788 | 18901 ft | 410 kts | 245° |
| 2026-04-25 05:06 | 50.68887 | 70.22672 | 19203 ft | 411 kts | 246° |
| 2026-04-25 05:06 | 50.67912 | 70.18422 | 19503 ft | 413 kts | 250° |
| 2026-04-25 05:07 | 50.66967 | 70.14198 | 19812 ft | 414 kts | 249° |
| 2026-04-25 05:07 | 50.65994 | 70.09921 | 20102 ft | 415 kts | 249° |
| 2026-04-25 05:07 | 50.65013 | 70.05638 | 20415 ft | 416 kts | 249° |
| 2026-04-25 05:07 | 50.64025 | 70.01341 | 20724 ft | 417 kts | 249° |
| 2026-04-25 05:08 | 50.63033 | 69.97040 | 21035 ft | 418 kts | 249° |
| 2026-04-25 05:08 | 50.62037 | 69.92733 | 21350 ft | 419 kts | 249° |
| 2026-04-25 05:08 | 50.61036 | 69.88411 | 21657 ft | 421 kts | 249° |
| 2026-04-25 05:08 | 50.60029 | 69.84073 | 21954 ft | 423 kts | 249° |
| 2026-04-25 05:09 | 50.59016 | 69.79717 | 22259 ft | 424 kts | 249° |
| 2026-04-25 05:09 | 50.57999 | 69.75353 | 22580 ft | 426 kts | 249° |
| 2026-04-25 05:09 | 50.56974 | 69.70963 | 22899 ft | 427 kts | 249° |
| 2026-04-25 05:09 | 50.55947 | 69.66573 | 23232 ft | 429 kts | 249° |
| 2026-04-25 05:10 | 50.54911 | 69.62156 | 23564 ft | 431 kts | 249° |
| 2026-04-25 05:10 | 50.53872 | 69.57736 | 23833 ft | 433 kts | 249° |
| 2026-04-25 05:10 | 50.52826 | 69.53292 | 24118 ft | 434 kts | 249° |
| 2026-04-25 05:10 | 50.51776 | 69.48840 | 24421 ft | 435 kts | 249° |
| 2026-04-25 05:11 | 50.50722 | 69.44383 | 24815 ft | 435 kts | 249° |
| 2026-04-25 05:11 | 50.49668 | 69.39934 | 25255 ft | 433 kts | 249° |
| 2026-04-25 05:11 | 50.48619 | 69.35514 | 25689 ft | 432 kts | 249° |
| 2026-04-25 05:12 | 50.46526 | 69.26713 | 26576 ft | 429 kts | 249° |
| 2026-04-25 05:12 | 50.45482 | 69.22333 | 27011 ft | 427 kts | 249° |
| 2026-04-25 05:12 | 50.44443 | 69.17979 | 27453 ft | 426 kts | 249° |
| 2026-04-25 05:12 | 50.43420 | 69.13697 | 27869 ft | 424 kts | 249° |
| 2026-04-25 05:13 | 50.42386 | 69.09376 | 28307 ft | 423 kts | 249° |
| 2026-04-25 05:13 | 50.41353 | 69.05068 | 28724 ft | 421 kts | 249° |
| 2026-04-25 05:13 | 50.40323 | 69.00784 | 29155 ft | 420 kts | 249° |
| 2026-04-25 05:13 | 50.39294 | 68.96513 | 29575 ft | 418 kts | 249° |
| 2026-04-25 05:14 | 50.38266 | 68.92251 | 29968 ft | 417 kts | 249° |
| 2026-04-25 05:14 | 50.37240 | 68.88004 | 30310 ft | 416 kts | 249° |
| 2026-04-25 05:14 | 50.36216 | 68.83779 | 30637 ft | 414 kts | 249° |
| 2026-04-25 05:15 | 50.34176 | 68.75379 | 31302 ft | 411 kts | 249° |
| 2026-04-25 05:15 | 50.33157 | 68.71198 | 31646 ft | 410 kts | 249° |
| 2026-04-25 05:15 | 50.32143 | 68.67043 | 31979 ft | 408 kts | 248° |
| 2026-04-25 05:15 | 50.31132 | 68.62907 | 32301 ft | 406 kts | 248° |
| 2026-04-25 05:16 | 50.30123 | 68.58789 | 32627 ft | 405 kts | 248° |
| 2026-04-25 05:16 | 50.29116 | 68.54688 | 32932 ft | 403 kts | 248° |
| 2026-04-25 05:16 | 50.28111 | 68.50598 | 33244 ft | 402 kts | 248° |
| 2026-04-25 05:16 | 50.27108 | 68.46528 | 33546 ft | 400 kts | 248° |
| 2026-04-25 05:17 | 50.26108 | 68.42473 | 33841 ft | 399 kts | 248° |
| 2026-04-25 05:17 | 50.25124 | 68.38495 | 34098 ft | 397 kts | 248° |
| 2026-04-25 05:17 | 50.24116 | 68.34423 | 34302 ft | 397 kts | 248° |
| 2026-04-25 05:17 | 50.23133 | 68.30453 | 34486 ft | 397 kts | 248° |
| 2026-04-25 05:18 | 50.22212 | 68.26388 | 34655 ft | 397 kts | 251° |
| 2026-04-25 05:18 | 50.21341 | 68.22299 | 34818 ft | 397 kts | 250° |
| 2026-04-25 05:18 | 50.20457 | 68.18206 | 35002 ft | 397 kts | 250° |
| 2026-04-25 05:18 | 50.19571 | 68.14126 | 35170 ft | 397 kts | 250° |
| 2026-04-25 05:19 | 50.18679 | 68.10037 | 35334 ft | 397 kts | 250° |
| 2026-04-25 05:19 | 50.17788 | 68.05958 | 35509 ft | 397 kts | 250° |
| 2026-04-25 05:19 | 50.16894 | 68.01877 | 35652 ft | 397 kts | 250° |
| 2026-04-25 05:19 | 50.16000 | 67.97804 | 35804 ft | 397 kts | 250° |
| 2026-04-25 05:20 | 50.15104 | 67.93726 | 35930 ft | 397 kts | 250° |
| 2026-04-25 05:20 | 50.13307 | 67.85579 | 35945 ft | 397 kts | 250° |
| 2026-04-25 05:21 | 50.11511 | 67.77467 | 35948 ft | 396 kts | 250° |
| 2026-04-25 05:21 | 50.09718 | 67.69397 | 35947 ft | 396 kts | 250° |
| 2026-04-25 05:22 | 50.07908 | 67.61287 | 35946 ft | 396 kts | 250° |
| 2026-04-25 05:22 | 50.06094 | 67.53187 | 35947 ft | 396 kts | 250° |
| 2026-04-25 05:23 | 50.04274 | 67.45094 | 35940 ft | 396 kts | 250° |
| 2026-04-25 05:23 | 50.02451 | 67.37016 | 35941 ft | 396 kts | 249° |
| 2026-04-25 05:24 | 50.00624 | 67.28951 | 35938 ft | 395 kts | 249° |
| 2026-04-25 05:24 | 49.98790 | 67.20885 | 35931 ft | 395 kts | 249° |
| 2026-04-25 05:25 | 49.96936 | 67.12854 | 35925 ft | 394 kts | 245° |
| 2026-04-25 05:25 | 49.94700 | 67.05130 | 35930 ft | 395 kts | 245° |
| 2026-04-25 05:26 | 49.92489 | 66.97329 | 35930 ft | 395 kts | 245° |
| 2026-04-25 05:26 | 49.90285 | 66.89522 | 35927 ft | 395 kts | 245° |
| 2026-04-25 05:27 | 49.88079 | 66.81726 | 35920 ft | 394 kts | 245° |
| 2026-04-25 05:27 | 49.85870 | 66.73946 | 35916 ft | 394 kts | 245° |
| 2026-04-25 05:28 | 49.83655 | 66.66168 | 35919 ft | 394 kts | 245° |
| 2026-04-25 05:28 | 49.81436 | 66.58405 | 35918 ft | 394 kts | 245° |
| 2026-04-25 05:29 | 49.79213 | 66.50648 | 35914 ft | 394 kts | 245° |
| 2026-04-25 05:29 | 49.76997 | 66.42945 | 35913 ft | 394 kts | 245° |
| 2026-04-25 05:30 | 49.74764 | 66.35199 | 35906 ft | 394 kts | 245° |
| 2026-04-25 05:30 | 49.72580 | 66.27426 | 35905 ft | 394 kts | 245° |
| 2026-04-25 05:31 | 49.70395 | 66.19668 | 35905 ft | 394 kts | 245° |
| 2026-04-25 05:31 | 49.68204 | 66.11921 | 35902 ft | 394 kts | 245° |
| 2026-04-25 05:32 | 49.66006 | 66.04175 | 35901 ft | 393 kts | 245° |
| 2026-04-25 05:32 | 49.63806 | 65.96449 | 35898 ft | 393 kts | 245° |
| 2026-04-25 05:33 | 49.61601 | 65.88728 | 35897 ft | 393 kts | 245° |
| 2026-04-25 05:33 | 49.59765 | 65.82315 | 35897 ft | 393 kts | 245° |
| 2026-04-25 05:34 | 49.57194 | 65.73371 | 35898 ft | 393 kts | 244° |
| 2026-04-25 05:34 | 49.55348 | 65.66964 | 35894 ft | 393 kts | 244° |
| 2026-04-25 05:35 | 49.53124 | 65.59275 | 35897 ft | 393 kts | 244° |
| 2026-04-25 05:35 | 49.50895 | 65.51591 | 35894 ft | 393 kts | 244° |
| 2026-04-25 05:36 | 49.48661 | 65.43912 | 35894 ft | 393 kts | 244° |
| 2026-04-25 05:36 | 49.46423 | 65.36246 | 35891 ft | 393 kts | 244° |
| 2026-04-25 05:37 | 49.44181 | 65.28588 | 35887 ft | 393 kts | 244° |
| 2026-04-25 05:37 | 49.41946 | 65.20980 | 35887 ft | 393 kts | 244° |
| 2026-04-25 05:38 | 49.39678 | 65.13283 | 35886 ft | 393 kts | 244° |
| 2026-04-25 05:38 | 49.37437 | 65.05702 | 35889 ft | 392 kts | 244° |
| 2026-04-25 05:39 | 49.35178 | 64.98071 | 35884 ft | 393 kts | 244° |
| 2026-04-25 05:39 | 49.32782 | 64.90542 | 35887 ft | 393 kts | 242° |
| 2026-04-25 05:40 | 49.30382 | 64.83028 | 35886 ft | 392 kts | 242° |
| 2026-04-25 05:40 | 49.27980 | 64.75516 | 35881 ft | 393 kts | 242° |
| 2026-04-25 05:41 | 49.25573 | 64.68006 | 35885 ft | 393 kts | 242° |
| 2026-04-25 05:41 | 49.23162 | 64.60506 | 35880 ft | 392 kts | 242° |
| 2026-04-25 05:42 | 49.20747 | 64.53016 | 35879 ft | 392 kts | 242° |
| 2026-04-25 05:42 | 49.18329 | 64.45537 | 35878 ft | 392 kts | 242° |
| 2026-04-25 05:43 | 49.15901 | 64.38054 | 35875 ft | 392 kts | 242° |
| 2026-04-25 05:43 | 49.13486 | 64.30630 | 35878 ft | 392 kts | 242° |
| 2026-04-25 05:44 | 49.11052 | 64.23169 | 35875 ft | 392 kts | 242° |
| 2026-04-25 05:44 | 49.08611 | 64.15711 | 35871 ft | 392 kts | 242° |
| 2026-04-25 05:45 | 49.06168 | 64.08267 | 35871 ft | 392 kts | 242° |
| 2026-04-25 05:45 | 49.03721 | 64.00831 | 35869 ft | 392 kts | 242° |
| 2026-04-25 05:46 | 49.01285 | 63.93455 | 35870 ft | 392 kts | 242° |
| 2026-04-25 05:46 | 48.98828 | 63.86035 | 35869 ft | 392 kts | 242° |
| 2026-04-25 05:47 | 48.96366 | 63.78618 | 35867 ft | 392 kts | 242° |
| 2026-04-25 05:47 | 48.93903 | 63.71223 | 35863 ft | 392 kts | 242° |
| 2026-04-25 05:48 | 48.91437 | 63.63835 | 35864 ft | 392 kts | 242° |
| 2026-04-25 05:48 | 48.88967 | 63.56453 | 35862 ft | 392 kts | 241° |
| 2026-04-25 05:49 | 48.86754 | 63.48954 | 35871 ft | 392 kts | 244° |
| 2026-04-25 05:49 | 48.84545 | 63.41366 | 35869 ft | 392 kts | 244° |
| 2026-04-25 05:50 | 48.82323 | 63.33805 | 35868 ft | 392 kts | 244° |
| 2026-04-25 05:50 | 48.80092 | 63.26247 | 35866 ft | 392 kts | 244° |
| 2026-04-25 05:51 | 48.77856 | 63.18692 | 35868 ft | 392 kts | 244° |
| 2026-04-25 05:51 | 48.75631 | 63.11201 | 35871 ft | 392 kts | 244° |
| 2026-04-25 05:52 | 48.73387 | 63.03667 | 35867 ft | 392 kts | 244° |
| 2026-04-25 05:52 | 48.71138 | 62.96141 | 35866 ft | 392 kts | 244° |
| 2026-04-25 05:53 | 48.68878 | 62.88597 | 35869 ft | 392 kts | 244° |
| 2026-04-25 05:53 | 48.66619 | 62.81083 | 35871 ft | 392 kts | 244° |
| 2026-04-25 05:54 | 48.64371 | 62.73625 | 35873 ft | 392 kts | 244° |
| 2026-04-25 05:54 | 48.60801 | 62.62499 | 35867 ft | 392 kts | 242° |
| 2026-04-25 05:55 | 48.58357 | 62.55119 | 35869 ft | 392 kts | 242° |
| 2026-04-25 05:55 | 48.55913 | 62.47739 | 35872 ft | 392 kts | 242° |
| 2026-04-25 05:56 | 48.53482 | 62.40417 | 35879 ft | 392 kts | 242° |
| 2026-04-25 05:56 | 48.51030 | 62.33054 | 35877 ft | 392 kts | 242° |
| 2026-04-25 05:57 | 48.48572 | 62.25695 | 35877 ft | 392 kts | 242° |
| 2026-04-25 05:57 | 48.46111 | 62.18345 | 35878 ft | 392 kts | 242° |
| 2026-04-25 05:58 | 48.43663 | 62.11057 | 35874 ft | 392 kts | 242° |
| 2026-04-25 05:58 | 48.41192 | 62.03718 | 35872 ft | 392 kts | 242° |
| 2026-04-25 05:59 | 48.38719 | 61.96399 | 35870 ft | 392 kts | 242° |
| 2026-04-25 05:59 | 48.36242 | 61.89086 | 35872 ft | 392 kts | 242° |
| 2026-04-25 06:00 | 48.33758 | 61.81775 | 35872 ft | 392 kts | 242° |
| 2026-04-25 06:00 | 48.31270 | 61.74470 | 35872 ft | 392 kts | 242° |
| 2026-04-25 06:01 | 48.28780 | 61.67184 | 35873 ft | 392 kts | 242° |
| 2026-04-25 06:01 | 48.26285 | 61.59901 | 35874 ft | 392 kts | 242° |
| 2026-04-25 06:02 | 48.23780 | 61.52612 | 35872 ft | 392 kts | 242° |
| 2026-04-25 06:02 | 48.21293 | 61.45392 | 35872 ft | 392 kts | 242° |
| 2026-04-25 06:03 | 48.18787 | 61.38139 | 35870 ft | 392 kts | 242° |
| 2026-04-25 06:03 | 48.16275 | 61.30889 | 35871 ft | 391 kts | 242° |
| 2026-04-25 06:04 | 48.13763 | 61.23658 | 35873 ft | 391 kts | 242° |
| 2026-04-25 06:04 | 48.11248 | 61.16441 | 35872 ft | 391 kts | 242° |
| 2026-04-25 06:05 | 48.08727 | 61.09223 | 35873 ft | 391 kts | 242° |
| 2026-04-25 06:05 | 48.06203 | 61.02022 | 35870 ft | 391 kts | 242° |
| 2026-04-25 06:06 | 48.03691 | 60.94872 | 35872 ft | 391 kts | 242° |
| 2026-04-25 06:06 | 48.01162 | 60.87691 | 35870 ft | 390 kts | 242° |
| 2026-04-25 06:07 | 47.98624 | 60.80506 | 35872 ft | 390 kts | 241° |
| 2026-04-25 06:07 | 47.96088 | 60.73349 | 35871 ft | 390 kts | 241° |
| 2026-04-25 06:08 | 47.93546 | 60.66189 | 35875 ft | 390 kts | 241° |
| 2026-04-25 06:08 | 47.91000 | 60.59043 | 35875 ft | 390 kts | 241° |
| 2026-04-25 06:09 | 47.88452 | 60.51907 | 35873 ft | 390 kts | 241° |
| 2026-04-25 06:09 | 47.85900 | 60.44780 | 35874 ft | 390 kts | 241° |
| 2026-04-25 06:10 | 47.83357 | 60.37697 | 35873 ft | 390 kts | 241° |
| 2026-04-25 06:10 | 47.80799 | 60.30588 | 35872 ft | 390 kts | 241° |
| 2026-04-25 06:11 | 47.78237 | 60.23482 | 35876 ft | 390 kts | 241° |
| 2026-04-25 06:11 | 47.75668 | 60.16379 | 35875 ft | 390 kts | 241° |
| 2026-04-25 06:12 | 47.73087 | 60.09291 | 35879 ft | 390 kts | 241° |
| 2026-04-25 06:12 | 47.70507 | 60.02214 | 35881 ft | 390 kts | 240° |
| 2026-04-25 06:13 | 47.67923 | 59.95142 | 35883 ft | 390 kts | 240° |
| 2026-04-25 06:14 | 47.64037 | 59.84540 | 35882 ft | 390 kts | 240° |
| 2026-04-25 06:14 | 47.61441 | 59.77483 | 35888 ft | 390 kts | 240° |
| 2026-04-25 06:15 | 47.58859 | 59.70482 | 35888 ft | 390 kts | 240° |
| 2026-04-25 06:15 | 47.56256 | 59.63442 | 35885 ft | 389 kts | 240° |
| 2026-04-25 06:16 | 47.53646 | 59.56401 | 35890 ft | 389 kts | 240° |
| 2026-04-25 06:16 | 47.51037 | 59.49382 | 35889 ft | 389 kts | 240° |
| 2026-04-25 06:17 | 47.48427 | 59.42379 | 35891 ft | 389 kts | 240° |
| 2026-04-25 06:17 | 47.45810 | 59.35376 | 35890 ft | 389 kts | 240° |
| 2026-04-25 06:18 | 47.43192 | 59.28386 | 35898 ft | 389 kts | 240° |
| 2026-04-25 06:18 | 47.40582 | 59.21439 | 35897 ft | 389 kts | 240° |
| 2026-04-25 06:19 | 47.37952 | 59.14455 | 35897 ft | 389 kts | 240° |
| 2026-04-25 06:19 | 47.35319 | 59.07482 | 35900 ft | 389 kts | 240° |
| 2026-04-25 06:20 | 47.32680 | 59.00510 | 35899 ft | 389 kts | 240° |
| 2026-04-25 06:20 | 47.30038 | 58.93549 | 35900 ft | 389 kts | 240° |
| 2026-04-25 06:21 | 47.27835 | 58.87759 | 35901 ft | 389 kts | 240° |
| 2026-04-25 06:21 | 47.25187 | 58.80817 | 35901 ft | 389 kts | 240° |
| 2026-04-25 06:22 | 47.22100 | 58.72744 | 35899 ft | 389 kts | 240° |
| 2026-04-25 06:22 | 47.19887 | 58.66972 | 35903 ft | 389 kts | 239° |
| 2026-04-25 06:23 | 47.17220 | 58.60033 | 35904 ft | 389 kts | 239° |
| 2026-04-25 06:23 | 47.14554 | 58.53115 | 35908 ft | 389 kts | 239° |
| 2026-04-25 06:24 | 47.11876 | 58.46182 | 35905 ft | 390 kts | 239° |
| 2026-04-25 06:24 | 47.09199 | 58.39270 | 35909 ft | 390 kts | 239° |
| 2026-04-25 06:25 | 47.06517 | 58.32362 | 35911 ft | 390 kts | 239° |
| 2026-04-25 06:25 | 47.03826 | 58.25450 | 35917 ft | 390 kts | 239° |
| 2026-04-25 06:26 | 47.01143 | 58.18573 | 35918 ft | 390 kts | 239° |
| 2026-04-25 06:26 | 46.98443 | 58.11673 | 35916 ft | 390 kts | 239° |
| 2026-04-25 06:27 | 46.95736 | 58.04772 | 35917 ft | 391 kts | 239° |
| 2026-04-25 06:27 | 46.93023 | 57.97876 | 35922 ft | 390 kts | 239° |
| 2026-04-25 06:28 | 46.90313 | 57.91001 | 35930 ft | 390 kts | 239° |
| 2026-04-25 06:28 | 46.87612 | 57.84167 | 35932 ft | 390 kts | 239° |
| 2026-04-25 06:29 | 46.84890 | 57.77298 | 35935 ft | 390 kts | 239° |
| 2026-04-25 06:29 | 46.82161 | 57.70426 | 35942 ft | 390 kts | 239° |
| 2026-04-25 06:30 | 46.79432 | 57.63574 | 35931 ft | 390 kts | 239° |
| 2026-04-25 06:30 | 46.76700 | 57.56731 | 35936 ft | 390 kts | 239° |
| 2026-04-25 06:31 | 46.73965 | 57.49898 | 35941 ft | 390 kts | 239° |
| 2026-04-25 06:31 | 46.71231 | 57.43085 | 35943 ft | 389 kts | 239° |
| 2026-04-25 06:32 | 46.68512 | 57.36324 | 35950 ft | 389 kts | 239° |
| 2026-04-25 06:32 | 46.65772 | 57.29530 | 35940 ft | 389 kts | 239° |
| 2026-04-25 06:33 | 46.63032 | 57.22754 | 35953 ft | 388 kts | 239° |
| 2026-04-25 06:33 | 46.60290 | 57.15983 | 35955 ft | 388 kts | 239° |
| 2026-04-25 06:34 | 46.57546 | 57.09223 | 35956 ft | 388 kts | 239° |
| 2026-04-25 06:34 | 46.54803 | 57.02481 | 35965 ft | 387 kts | 239° |
| 2026-04-25 06:35 | 46.52060 | 56.95756 | 35958 ft | 387 kts | 239° |
| 2026-04-25 06:35 | 46.49329 | 56.89076 | 35967 ft | 387 kts | 239° |
| 2026-04-25 06:36 | 46.46078 | 56.82875 | 35973 ft | 387 kts | 231° |
| 2026-04-25 06:36 | 46.44134 | 56.80161 | 35952 ft | 389 kts | 219° |
| 2026-04-25 06:36 | 46.41882 | 56.77963 | 35975 ft | 392 kts | 216° |
| 2026-04-25 06:37 | 46.37573 | 56.73240 | 35969 ft | 387 kts | 224° |
| 2026-04-25 06:37 | 46.33482 | 56.68132 | 35963 ft | 388 kts | 223° |
| 2026-04-25 06:38 | 46.29369 | 56.63042 | 35971 ft | 388 kts | 223° |
| 2026-04-25 06:38 | 46.25289 | 56.58009 | 35973 ft | 388 kts | 223° |
| 2026-04-25 06:39 | 46.21179 | 56.52950 | 35968 ft | 388 kts | 223° |
| 2026-04-25 06:39 | 46.17068 | 56.47899 | 35973 ft | 388 kts | 223° |
| 2026-04-25 06:40 | 46.12960 | 56.42862 | 35973 ft | 387 kts | 223° |
| 2026-04-25 06:40 | 46.08854 | 56.37838 | 35969 ft | 387 kts | 223° |
| 2026-04-25 06:41 | 46.04747 | 56.32823 | 35970 ft | 387 kts | 223° |
| 2026-04-25 06:41 | 46.00643 | 56.27821 | 35971 ft | 386 kts | 223° |
| 2026-04-25 06:42 | 45.96541 | 56.22833 | 35968 ft | 386 kts | 223° |
| 2026-04-25 06:42 | 45.92440 | 56.17856 | 35973 ft | 386 kts | 223° |
| 2026-04-25 06:43 | 45.88338 | 56.12886 | 35977 ft | 385 kts | 223° |
| 2026-04-25 06:43 | 45.84236 | 56.07928 | 35972 ft | 385 kts | 223° |
| 2026-04-25 06:44 | 45.80139 | 56.02985 | 35973 ft | 385 kts | 223° |
| 2026-04-25 06:44 | 45.76045 | 55.98055 | 35971 ft | 384 kts | 224° |
| 2026-04-25 06:45 | 45.71956 | 55.93141 | 35973 ft | 384 kts | 224° |
| 2026-04-25 06:45 | 45.67893 | 55.88268 | 35983 ft | 383 kts | 224° |
| 2026-04-25 06:46 | 45.63810 | 55.83381 | 35976 ft | 382 kts | 224° |
| 2026-04-25 06:46 | 45.59733 | 55.78510 | 35978 ft | 382 kts | 224° |
| 2026-04-25 06:47 | 45.55663 | 55.73658 | 35978 ft | 381 kts | 224° |
| 2026-04-25 06:47 | 45.51595 | 55.68817 | 35978 ft | 380 kts | 224° |
| 2026-04-25 06:48 | 45.47565 | 55.64031 | 35973 ft | 379 kts | 224° |
| 2026-04-25 06:48 | 45.43517 | 55.59232 | 35976 ft | 378 kts | 224° |
| 2026-04-25 06:49 | 45.39472 | 55.54447 | 35975 ft | 378 kts | 224° |
| 2026-04-25 06:49 | 45.35430 | 55.49674 | 35974 ft | 377 kts | 224° |
| 2026-04-25 06:50 | 45.31392 | 55.44915 | 35976 ft | 377 kts | 224° |
| 2026-04-25 06:50 | 45.27357 | 55.40168 | 35975 ft | 376 kts | 224° |
| 2026-04-25 06:51 | 45.23330 | 55.35440 | 35975 ft | 375 kts | 224° |
| 2026-04-25 06:51 | 45.19301 | 55.30718 | 35974 ft | 375 kts | 224° |
| 2026-04-25 06:52 | 45.15283 | 55.26016 | 35976 ft | 374 kts | 224° |
| 2026-04-25 06:52 | 45.11290 | 55.21352 | 35976 ft | 374 kts | 224° |
| 2026-04-25 06:53 | 45.07384 | 55.16544 | 35981 ft | 371 kts | 227° |
| 2026-04-25 06:53 | 45.03589 | 55.11578 | 35978 ft | 371 kts | 227° |
| 2026-04-25 06:54 | 44.99789 | 55.06654 | 35977 ft | 370 kts | 227° |
| 2026-04-25 06:54 | 44.95989 | 55.01746 | 35972 ft | 369 kts | 227° |
| 2026-04-25 06:55 | 44.92195 | 54.96855 | 35979 ft | 369 kts | 227° |
| 2026-04-25 06:55 | 44.88435 | 54.92016 | 35976 ft | 368 kts | 227° |
| 2026-04-25 06:56 | 44.84654 | 54.87160 | 35974 ft | 367 kts | 227° |
| 2026-04-25 06:56 | 44.80876 | 54.82316 | 35984 ft | 367 kts | 227° |
| 2026-04-25 06:57 | 44.77099 | 54.77484 | 35991 ft | 367 kts | 227° |
| 2026-04-25 06:57 | 44.73323 | 54.72661 | 35986 ft | 366 kts | 227° |
| 2026-04-25 06:58 | 44.69546 | 54.67845 | 35981 ft | 366 kts | 227° |
| 2026-04-25 06:58 | 44.65801 | 54.63073 | 35993 ft | 365 kts | 227° |
| 2026-04-25 06:59 | 44.62038 | 54.58278 | 35980 ft | 365 kts | 227° |
| 2026-04-25 06:59 | 44.58274 | 54.53492 | 35983 ft | 365 kts | 227° |
| 2026-04-25 07:00 | 44.54513 | 54.48718 | 35982 ft | 364 kts | 227° |
| 2026-04-25 07:00 | 44.50753 | 54.43952 | 35971 ft | 364 kts | 227° |
| 2026-04-25 07:01 | 44.47001 | 54.39207 | 35976 ft | 363 kts | 227° |
| 2026-04-25 07:01 | 44.43248 | 54.34468 | 35977 ft | 363 kts | 227° |
| 2026-04-25 07:02 | 44.39494 | 54.29738 | 35982 ft | 363 kts | 227° |
| 2026-04-25 07:02 | 44.35773 | 54.25056 | 35976 ft | 362 kts | 227° |
| 2026-04-25 07:03 | 44.32027 | 54.20351 | 35978 ft | 362 kts | 227° |
| 2026-04-25 07:03 | 44.28277 | 54.15651 | 35980 ft | 362 kts | 227° |
| 2026-04-25 07:04 | 44.24535 | 54.10968 | 35976 ft | 362 kts | 227° |
| 2026-04-25 07:04 | 44.20785 | 54.06284 | 35975 ft | 362 kts | 227° |
| 2026-04-25 07:05 | 44.17032 | 54.01605 | 35976 ft | 362 kts | 227° |
| 2026-04-25 07:05 | 44.13281 | 53.96935 | 35978 ft | 361 kts | 227° |
| 2026-04-25 07:06 | 44.09527 | 53.92272 | 35978 ft | 361 kts | 227° |
| 2026-04-25 07:06 | 44.05797 | 53.87645 | 35974 ft | 361 kts | 227° |
| 2026-04-25 07:07 | 44.02043 | 53.82998 | 35975 ft | 361 kts | 227° |
| 2026-04-25 07:07 | 43.98291 | 53.78360 | 35977 ft | 361 kts | 227° |
| 2026-04-25 07:08 | 43.94532 | 53.73723 | 35972 ft | 361 kts | 227° |
| 2026-04-25 07:08 | 43.90781 | 53.69101 | 35979 ft | 360 kts | 227° |
| 2026-04-25 07:09 | 43.87028 | 53.64489 | 35973 ft | 360 kts | 227° |
| 2026-04-25 07:09 | 43.83299 | 53.59915 | 35974 ft | 360 kts | 227° |
| 2026-04-25 07:10 | 43.79544 | 53.55316 | 35975 ft | 360 kts | 227° |
| 2026-04-25 07:10 | 43.75787 | 53.50722 | 35974 ft | 360 kts | 227° |
| 2026-04-25 07:11 | 43.72638 | 53.46877 | 35972 ft | 360 kts | 227° |
| 2026-04-25 07:11 | 43.68903 | 53.42324 | 35974 ft | 360 kts | 227° |
| 2026-04-25 07:12 | 43.65123 | 53.37725 | 35975 ft | 360 kts | 227° |
| 2026-04-25 07:12 | 43.59505 | 53.30903 | 35978 ft | 360 kts | 227° |
| 2026-04-25 07:13 | 43.55744 | 53.26348 | 35971 ft | 360 kts | 227° |
| 2026-04-25 07:13 | 43.51978 | 53.21794 | 35975 ft | 360 kts | 227° |
| 2026-04-25 07:14 | 43.48212 | 53.17248 | 35975 ft | 360 kts | 227° |
| 2026-04-25 07:14 | 43.44440 | 53.12703 | 35974 ft | 359 kts | 227° |
| 2026-04-25 07:15 | 43.40699 | 53.08202 | 35970 ft | 359 kts | 227° |
| 2026-04-25 07:15 | 43.36932 | 53.03678 | 35972 ft | 359 kts | 227° |
| 2026-04-25 07:16 | 43.33166 | 52.99164 | 35965 ft | 359 kts | 227° |
| 2026-04-25 07:16 | 43.29425 | 52.94687 | 35969 ft | 359 kts | 227° |
| 2026-04-25 07:17 | 43.25663 | 52.90192 | 35970 ft | 359 kts | 227° |
| 2026-04-25 07:17 | 43.21889 | 52.85691 | 35964 ft | 359 kts | 227° |
| 2026-04-25 07:18 | 43.18120 | 52.81203 | 35964 ft | 359 kts | 227° |
| 2026-04-25 07:18 | 43.14344 | 52.76715 | 35970 ft | 359 kts | 227° |
| 2026-04-25 07:19 | 43.10575 | 52.72241 | 35971 ft | 359 kts | 227° |
| 2026-04-25 07:19 | 43.06794 | 52.67763 | 35970 ft | 359 kts | 227° |
| 2026-04-25 07:20 | 43.03018 | 52.63297 | 35971 ft | 359 kts | 226° |
| 2026-04-25 07:20 | 42.99261 | 52.58862 | 35971 ft | 359 kts | 226° |
| 2026-04-25 07:21 | 42.95483 | 52.54409 | 35973 ft | 359 kts | 226° |
| 2026-04-25 07:21 | 42.91702 | 52.49959 | 35967 ft | 359 kts | 226° |
| 2026-04-25 07:22 | 42.87918 | 52.45515 | 35966 ft | 359 kts | 226° |
| 2026-04-25 07:22 | 42.84136 | 52.41078 | 35976 ft | 359 kts | 226° |
| 2026-04-25 07:23 | 42.80351 | 52.36648 | 35965 ft | 359 kts | 226° |
| 2026-04-25 07:23 | 42.76558 | 52.32214 | 35975 ft | 359 kts | 226° |
| 2026-04-25 07:24 | 42.72774 | 52.27799 | 35977 ft | 359 kts | 226° |
| 2026-04-25 07:24 | 42.68983 | 52.23383 | 35977 ft | 359 kts | 226° |
| 2026-04-25 07:25 | 42.65193 | 52.18976 | 35974 ft | 358 kts | 226° |
| 2026-04-25 07:25 | 42.61402 | 52.14574 | 35974 ft | 358 kts | 226° |
| 2026-04-25 07:26 | 42.57612 | 52.10180 | 35973 ft | 358 kts | 226° |
| 2026-04-25 07:26 | 42.53842 | 52.05818 | 35975 ft | 358 kts | 226° |
| 2026-04-25 07:27 | 42.50045 | 52.01431 | 35977 ft | 359 kts | 226° |
| 2026-04-25 07:27 | 42.46245 | 51.97048 | 35978 ft | 359 kts | 226° |
| 2026-04-25 07:28 | 42.42445 | 51.92673 | 35978 ft | 359 kts | 226° |
| 2026-04-25 07:28 | 42.38643 | 51.88303 | 35982 ft | 359 kts | 226° |
| 2026-04-25 07:29 | 42.34834 | 51.83931 | 35982 ft | 359 kts | 226° |
| 2026-04-25 07:29 | 42.31028 | 51.79570 | 35980 ft | 359 kts | 226° |
| 2026-04-25 07:30 | 42.27219 | 51.75213 | 35982 ft | 359 kts | 226° |
| 2026-04-25 07:30 | 42.23439 | 51.70896 | 35981 ft | 359 kts | 226° |
| 2026-04-25 07:31 | 42.19629 | 51.66551 | 35986 ft | 359 kts | 226° |
| 2026-04-25 07:31 | 42.15812 | 51.62205 | 35985 ft | 359 kts | 226° |
| 2026-04-25 07:32 | 42.11997 | 51.57867 | 35984 ft | 359 kts | 226° |
| 2026-04-25 07:32 | 42.08185 | 51.53540 | 35987 ft | 358 kts | 226° |
| 2026-04-25 07:33 | 42.04366 | 51.49211 | 35988 ft | 359 kts | 226° |
| 2026-04-25 07:33 | 42.02580 | 51.46915 | 35973 ft | 352 kts | 237° |
| 2026-04-25 07:33 | 42.01462 | 51.44040 | 36000 ft | 347 kts | 249° |
| 2026-04-25 07:34 | 41.99772 | 51.37950 | 35995 ft | 350 kts | 250° |
| 2026-04-25 07:34 | 41.98192 | 51.31754 | 35996 ft | 350 kts | 250° |
| 2026-04-25 07:35 | 41.96657 | 51.25544 | 35995 ft | 350 kts | 250° |
| 2026-04-25 07:35 | 41.95136 | 51.19337 | 35992 ft | 350 kts | 250° |
| 2026-04-25 07:36 | 41.93613 | 51.13130 | 35997 ft | 350 kts | 250° |
| 2026-04-25 07:36 | 41.92087 | 51.06921 | 35999 ft | 350 kts | 250° |
| 2026-04-25 07:37 | 41.90558 | 51.00718 | 35998 ft | 350 kts | 250° |
| 2026-04-25 07:37 | 41.89034 | 50.94554 | 35998 ft | 350 kts | 250° |
| 2026-04-25 07:38 | 41.87496 | 50.88346 | 35999 ft | 350 kts | 250° |
| 2026-04-25 07:38 | 41.85956 | 50.82148 | 36001 ft | 350 kts | 250° |
| 2026-04-25 07:39 | 41.84414 | 50.75957 | 36005 ft | 350 kts | 250° |
| 2026-04-25 07:39 | 41.82867 | 50.69763 | 36004 ft | 350 kts | 250° |
| 2026-04-25 07:40 | 41.81313 | 50.63560 | 36002 ft | 350 kts | 250° |
| 2026-04-25 07:40 | 41.79758 | 50.57368 | 36008 ft | 350 kts | 250° |
| 2026-04-25 07:41 | 41.78201 | 50.51184 | 36008 ft | 350 kts | 250° |
| 2026-04-25 07:41 | 41.76640 | 50.44999 | 36011 ft | 351 kts | 250° |
| 2026-04-25 07:42 | 41.75074 | 50.38810 | 36010 ft | 351 kts | 250° |
| 2026-04-25 07:42 | 41.73513 | 50.32657 | 36015 ft | 351 kts | 250° |
| 2026-04-25 07:43 | 41.71937 | 50.26463 | 36019 ft | 351 kts | 249° |
| 2026-04-25 07:43 | 41.70355 | 50.20260 | 36017 ft | 352 kts | 249° |
| 2026-04-25 07:44 | 41.68770 | 50.14061 | 36015 ft | 352 kts | 249° |
| 2026-04-25 07:44 | 41.67181 | 50.07864 | 36016 ft | 352 kts | 249° |
| 2026-04-25 07:45 | 41.65596 | 50.01697 | 36026 ft | 353 kts | 249° |
| 2026-04-25 07:45 | 41.63996 | 49.95488 | 36021 ft | 353 kts | 249° |
| 2026-04-25 07:46 | 41.62391 | 49.89277 | 36026 ft | 354 kts | 249° |
| 2026-04-25 07:46 | 41.60780 | 49.83058 | 36029 ft | 354 kts | 249° |
| 2026-04-25 07:47 | 41.59164 | 49.76834 | 36037 ft | 355 kts | 249° |
| 2026-04-25 07:47 | 41.57541 | 49.70602 | 36026 ft | 355 kts | 249° |
| 2026-04-25 07:48 | 41.55913 | 49.64366 | 36029 ft | 356 kts | 249° |
| 2026-04-25 07:48 | 41.54279 | 49.58124 | 36035 ft | 356 kts | 249° |
| 2026-04-25 07:49 | 41.52636 | 49.51864 | 36039 ft | 357 kts | 249° |
| 2026-04-25 07:49 | 41.50990 | 49.45604 | 36031 ft | 358 kts | 249° |
| 2026-04-25 07:50 | 41.49345 | 49.39367 | 36032 ft | 359 kts | 249° |
| 2026-04-25 07:50 | 41.47683 | 49.33081 | 36032 ft | 359 kts | 249° |
| 2026-04-25 07:51 | 41.46015 | 49.26789 | 36028 ft | 360 kts | 249° |
| 2026-04-25 07:51 | 41.44340 | 49.20490 | 36030 ft | 361 kts | 249° |
| 2026-04-25 07:52 | 41.42659 | 49.14179 | 36031 ft | 362 kts | 249° |
| 2026-04-25 07:52 | 41.40971 | 49.07856 | 36032 ft | 362 kts | 249° |
| 2026-04-25 07:53 | 41.39275 | 49.01518 | 36032 ft | 363 kts | 249° |
| 2026-04-25 07:53 | 41.37575 | 48.95180 | 36031 ft | 364 kts | 249° |
| 2026-04-25 07:54 | 41.35876 | 48.88877 | 36029 ft | 365 kts | 249° |
| 2026-04-25 07:54 | 41.34156 | 48.82520 | 36025 ft | 365 kts | 249° |
| 2026-04-25 07:55 | 41.32431 | 48.76150 | 36015 ft | 366 kts | 249° |
| 2026-04-25 07:55 | 41.30695 | 48.69758 | 36015 ft | 368 kts | 249° |
| 2026-04-25 07:56 | 41.28951 | 48.63349 | 36004 ft | 369 kts | 249° |
| 2026-04-25 07:56 | 41.27495 | 48.58009 | 35982 ft | 370 kts | 249° |
| 2026-04-25 07:57 | 41.25719 | 48.51516 | 35984 ft | 372 kts | 249° |
| 2026-04-25 07:57 | 41.23949 | 48.45057 | 35991 ft | 372 kts | 249° |
| 2026-04-25 07:58 | 41.22188 | 48.38653 | 35987 ft | 371 kts | 249° |
| 2026-04-25 07:58 | 41.20412 | 48.32211 | 36015 ft | 371 kts | 249° |
| 2026-04-25 07:59 | 41.18636 | 48.25779 | 35986 ft | 369 kts | 249° |
| 2026-04-25 07:59 | 41.16862 | 48.19376 | 35987 ft | 369 kts | 249° |
| 2026-04-25 08:00 | 41.15092 | 48.13000 | 35967 ft | 367 kts | 249° |
| 2026-04-25 08:00 | 41.13337 | 48.06694 | 36001 ft | 367 kts | 249° |
| 2026-04-25 08:01 | 41.11605 | 48.00353 | 35991 ft | 365 kts | 254° |
| 2026-04-25 08:01 | 41.11366 | 47.97001 | 35952 ft | 370 kts | 270° |
| 2026-04-25 08:01 | 41.11779 | 47.93613 | 35986 ft | 374 kts | 273° |
| 2026-04-25 08:02 | 41.12731 | 47.86794 | 36020 ft | 377 kts | 274° |
| 2026-04-25 08:02 | 41.13763 | 47.79982 | 35988 ft | 376 kts | 275° |
| 2026-04-25 08:03 | 41.14814 | 47.73212 | 35986 ft | 376 kts | 275° |
| 2026-04-25 08:03 | 41.15870 | 47.66415 | 36007 ft | 377 kts | 275° |
| 2026-04-25 08:04 | 41.16921 | 47.59631 | 36027 ft | 375 kts | 275° |
| 2026-04-25 08:04 | 41.17970 | 47.52828 | 36027 ft | 376 kts | 275° |
| 2026-04-25 08:05 | 41.19014 | 47.46032 | 36017 ft | 376 kts | 275° |
| 2026-04-25 08:05 | 41.20056 | 47.39226 | 36046 ft | 376 kts | 275° |
| 2026-04-25 08:06 | 41.21091 | 47.32427 | 36059 ft | 375 kts | 275° |
| 2026-04-25 08:06 | 41.22115 | 47.25673 | 36092 ft | 376 kts | 275° |
| 2026-04-25 08:07 | 41.23141 | 47.18886 | 36097 ft | 374 kts | 275° |
| 2026-04-25 08:07 | 41.24160 | 47.12110 | 36102 ft | 373 kts | 275° |
| 2026-04-25 08:08 | 41.25175 | 47.05334 | 36097 ft | 373 kts | 275° |
| 2026-04-25 08:08 | 41.26185 | 46.98564 | 36113 ft | 374 kts | 275° |
| 2026-04-25 08:09 | 41.27191 | 46.91789 | 36122 ft | 373 kts | 275° |
| 2026-04-25 08:09 | 41.28195 | 46.85009 | 36140 ft | 374 kts | 275° |
| 2026-04-25 08:10 | 41.29194 | 46.78234 | 36145 ft | 374 kts | 275° |
| 2026-04-25 08:10 | 41.30161 | 46.71443 | 36155 ft | 374 kts | 275° |
| 2026-04-25 08:11 | 41.31112 | 46.64670 | 36157 ft | 375 kts | 275° |
| 2026-04-25 08:11 | 41.32070 | 46.57833 | 36151 ft | 376 kts | 275° |
| 2026-04-25 08:12 | 41.33024 | 46.50993 | 36147 ft | 376 kts | 275° |
| 2026-04-25 08:12 | 41.33974 | 46.44151 | 36139 ft | 376 kts | 275° |
| 2026-04-25 08:13 | 41.34922 | 46.37294 | 36133 ft | 377 kts | 275° |
| 2026-04-25 08:14 | 41.36339 | 46.26984 | 36130 ft | 378 kts | 275° |
| 2026-04-25 08:14 | 41.37276 | 46.20130 | 36127 ft | 379 kts | 275° |
| 2026-04-25 08:15 | 41.38215 | 46.13225 | 36132 ft | 379 kts | 275° |
| 2026-04-25 08:15 | 41.39153 | 46.06297 | 36127 ft | 379 kts | 275° |
| 2026-04-25 08:16 | 41.40086 | 45.99367 | 36120 ft | 380 kts | 276° |
| 2026-04-25 08:16 | 41.41017 | 45.92429 | 36118 ft | 381 kts | 276° |
| 2026-04-25 08:17 | 41.41938 | 45.85525 | 36120 ft | 381 kts | 276° |
| 2026-04-25 08:17 | 41.42861 | 45.78577 | 36119 ft | 381 kts | 276° |
| 2026-04-25 08:18 | 41.43782 | 45.71610 | 36122 ft | 381 kts | 276° |
| 2026-04-25 08:18 | 41.44698 | 45.64648 | 36115 ft | 382 kts | 276° |
| 2026-04-25 08:19 | 41.45611 | 45.57674 | 36111 ft | 382 kts | 276° |
| 2026-04-25 08:19 | 41.46520 | 45.50694 | 36112 ft | 382 kts | 276° |
| 2026-04-25 08:20 | 41.47428 | 45.43705 | 36118 ft | 383 kts | 276° |
| 2026-04-25 08:20 | 41.48303 | 45.36702 | 36111 ft | 381 kts | 272° |
| 2026-04-25 08:21 | 41.48837 | 45.29666 | 36122 ft | 382 kts | 273° |
| 2026-04-25 08:21 | 41.49407 | 45.22659 | 36132 ft | 382 kts | 274° |
| 2026-04-25 08:22 | 41.49987 | 45.15596 | 36138 ft | 383 kts | 274° |
| 2026-04-25 08:22 | 41.50565 | 45.08526 | 36143 ft | 383 kts | 274° |
| 2026-04-25 08:23 | 41.51137 | 45.01486 | 36148 ft | 384 kts | 274° |
| 2026-04-25 08:23 | 41.51707 | 44.94397 | 36155 ft | 385 kts | 274° |
| 2026-04-25 08:24 | 41.52275 | 44.87288 | 36151 ft | 385 kts | 274° |
| 2026-04-25 08:24 | 41.52838 | 44.80183 | 36145 ft | 385 kts | 274° |
| 2026-04-25 08:25 | 41.53398 | 44.73062 | 36142 ft | 386 kts | 274° |
| 2026-04-25 08:25 | 41.53953 | 44.65939 | 36135 ft | 386 kts | 274° |
| 2026-04-25 08:26 | 41.54505 | 44.58812 | 36133 ft | 386 kts | 274° |
| 2026-04-25 08:26 | 41.55051 | 44.51689 | 36118 ft | 385 kts | 274° |
| 2026-04-25 08:27 | 41.55589 | 44.44614 | 36114 ft | 385 kts | 274° |
| 2026-04-25 08:27 | 41.56126 | 44.37502 | 36113 ft | 385 kts | 274° |
| 2026-04-25 08:28 | 41.56658 | 44.30400 | 36122 ft | 384 kts | 274° |
| 2026-04-25 08:28 | 41.57192 | 44.23300 | 36127 ft | 384 kts | 275° |
| 2026-04-25 08:29 | 41.57753 | 44.16207 | 36114 ft | 384 kts | 275° |
| 2026-04-25 08:29 | 41.58307 | 44.09104 | 36120 ft | 384 kts | 275° |
| 2026-04-25 08:30 | 41.58858 | 44.01990 | 36134 ft | 384 kts | 275° |
| 2026-04-25 08:30 | 41.59401 | 43.94921 | 36139 ft | 385 kts | 275° |
| 2026-04-25 08:31 | 41.59944 | 43.87793 | 36148 ft | 385 kts | 275° |
| 2026-04-25 08:31 | 41.60481 | 43.80675 | 36159 ft | 385 kts | 275° |
| 2026-04-25 08:32 | 41.61011 | 43.73598 | 36158 ft | 385 kts | 275° |
| 2026-04-25 08:32 | 41.61541 | 43.66473 | 36175 ft | 385 kts | 275° |
| 2026-04-25 08:33 | 41.62065 | 43.59349 | 36168 ft | 385 kts | 275° |
| 2026-04-25 08:33 | 41.62586 | 43.52230 | 36164 ft | 385 kts | 275° |
| 2026-04-25 08:34 | 41.63105 | 43.45103 | 36171 ft | 385 kts | 275° |
| 2026-04-25 08:34 | 41.63622 | 43.37969 | 36178 ft | 386 kts | 275° |
| 2026-04-25 08:35 | 41.64134 | 43.30829 | 36170 ft | 385 kts | 275° |
| 2026-04-25 08:35 | 41.64642 | 43.23690 | 36172 ft | 386 kts | 275° |
| 2026-04-25 08:36 | 41.65146 | 43.16545 | 36172 ft | 386 kts | 275° |
| 2026-04-25 08:36 | 41.65643 | 43.09432 | 36170 ft | 387 kts | 275° |
| 2026-04-25 08:37 | 41.66139 | 43.02268 | 36175 ft | 387 kts | 275° |
| 2026-04-25 08:37 | 41.66632 | 42.95078 | 36181 ft | 388 kts | 275° |
| 2026-04-25 08:38 | 41.67122 | 42.87881 | 36186 ft | 389 kts | 275° |
| 2026-04-25 08:38 | 41.67118 | 42.84281 | 36190 ft | 389 kts | 264° |
| 2026-04-25 08:38 | 41.66802 | 42.80679 | 36185 ft | 390 kts | 265° |
| 2026-04-25 08:39 | 41.66226 | 42.73497 | 36193 ft | 391 kts | 265° |
| 2026-04-25 08:39 | 41.65628 | 42.66264 | 36201 ft | 392 kts | 265° |
| 2026-04-25 08:40 | 41.65023 | 42.59006 | 36198 ft | 393 kts | 265° |
| 2026-04-25 08:40 | 41.64411 | 42.51734 | 36201 ft | 394 kts | 264° |
| 2026-04-25 08:41 | 41.63794 | 42.44453 | 36203 ft | 394 kts | 264° |
| 2026-04-25 08:41 | 41.63171 | 42.37162 | 36204 ft | 395 kts | 264° |
| 2026-04-25 08:42 | 41.62541 | 42.29836 | 36217 ft | 397 kts | 264° |
| 2026-04-25 08:42 | 41.61906 | 42.22517 | 36205 ft | 396 kts | 264° |
| 2026-04-25 08:43 | 41.61266 | 42.15185 | 36192 ft | 397 kts | 264° |
| 2026-04-25 08:43 | 41.60625 | 42.07901 | 36210 ft | 398 kts | 264° |
| 2026-04-25 08:44 | 41.59973 | 42.00555 | 36210 ft | 398 kts | 264° |
| 2026-04-25 08:44 | 41.59317 | 41.93204 | 36206 ft | 398 kts | 264° |
| 2026-04-25 08:45 | 41.58767 | 41.87098 | 36199 ft | 399 kts | 264° |
| 2026-04-25 08:45 | 41.58101 | 41.79730 | 36221 ft | 400 kts | 264° |
| 2026-04-25 08:46 | 41.57429 | 41.72370 | 36217 ft | 399 kts | 264° |
| 2026-04-25 08:46 | 41.56752 | 41.64998 | 36209 ft | 400 kts | 264° |
| 2026-04-25 08:47 | 41.56070 | 41.57616 | 36199 ft | 401 kts | 264° |
| 2026-04-25 08:47 | 41.55388 | 41.50271 | 36209 ft | 401 kts | 264° |
| 2026-04-25 08:48 | 41.54174 | 41.43014 | 36219 ft | 404 kts | 248° |
| 2026-04-25 08:48 | 41.51970 | 41.36094 | 36214 ft | 406 kts | 250° |
| 2026-04-25 08:49 | 41.49737 | 41.29159 | 36204 ft | 407 kts | 249° |
| 2026-04-25 08:49 | 41.47496 | 41.22283 | 36202 ft | 407 kts | 249° |
| 2026-04-25 08:50 | 41.45230 | 41.15355 | 36199 ft | 407 kts | 249° |
| 2026-04-25 08:50 | 41.42956 | 41.08434 | 36194 ft | 408 kts | 249° |
| 2026-04-25 08:51 | 41.40671 | 41.01504 | 36193 ft | 408 kts | 249° |
| 2026-04-25 08:51 | 41.38384 | 40.94583 | 36190 ft | 409 kts | 249° |
| 2026-04-25 08:52 | 41.36088 | 40.87651 | 36184 ft | 409 kts | 249° |
| 2026-04-25 08:52 | 41.33787 | 40.80725 | 36183 ft | 409 kts | 249° |
| 2026-04-25 08:53 | 41.31495 | 40.73839 | 36183 ft | 410 kts | 249° |
| 2026-04-25 08:53 | 41.29181 | 40.66908 | 36185 ft | 410 kts | 249° |
| 2026-04-25 08:54 | 41.26859 | 40.59968 | 36184 ft | 410 kts | 249° |
| 2026-04-25 08:54 | 41.24537 | 40.53046 | 36183 ft | 410 kts | 249° |
| 2026-04-25 08:55 | 41.22211 | 40.46126 | 36187 ft | 411 kts | 249° |
| 2026-04-25 08:55 | 41.19873 | 40.39193 | 36188 ft | 411 kts | 248° |
| 2026-04-25 08:56 | 41.17533 | 40.32259 | 36188 ft | 411 kts | 248° |
| 2026-04-25 08:56 | 41.15188 | 40.25330 | 36185 ft | 412 kts | 248° |
| 2026-04-25 08:57 | 41.12853 | 40.18447 | 36181 ft | 412 kts | 248° |
| 2026-04-25 08:57 | 41.10491 | 40.11517 | 36181 ft | 412 kts | 248° |
| 2026-04-25 08:58 | 41.08124 | 40.04587 | 36184 ft | 413 kts | 248° |
| 2026-04-25 08:58 | 41.05750 | 39.97653 | 36182 ft | 413 kts | 248° |
| 2026-04-25 08:59 | 41.03370 | 39.90720 | 36182 ft | 413 kts | 248° |
| 2026-04-25 08:59 | 41.00986 | 39.83789 | 36181 ft | 414 kts | 248° |
| 2026-04-25 08:59 | 41.00087 | 39.80194 | 36165 ft | 409 kts | 264° |
| 2026-04-25 09:00 | 41.00065 | 39.76502 | 36195 ft | 407 kts | 275° |
| 2026-04-25 09:00 | 41.00679 | 39.69005 | 36173 ft | 410 kts | 283° |
| 2026-04-25 09:01 | 41.02045 | 39.61672 | 36184 ft | 410 kts | 282° |
| 2026-04-25 09:01 | 41.03303 | 39.54291 | 36185 ft | 411 kts | 282° |
| 2026-04-25 09:02 | 41.04541 | 39.46893 | 36184 ft | 412 kts | 282° |
| 2026-04-25 09:02 | 41.05771 | 39.39489 | 36174 ft | 412 kts | 282° |
| 2026-04-25 09:03 | 41.06990 | 39.32123 | 36160 ft | 412 kts | 282° |
| 2026-04-25 09:03 | 41.08215 | 39.24690 | 36162 ft | 413 kts | 281° |
| 2026-04-25 09:04 | 41.09437 | 39.17243 | 36161 ft | 413 kts | 281° |
| 2026-04-25 09:04 | 41.10655 | 39.09791 | 36164 ft | 414 kts | 281° |
| 2026-04-25 09:05 | 41.11871 | 39.02322 | 36162 ft | 415 kts | 281° |
| 2026-04-25 09:05 | 41.13082 | 38.94843 | 36161 ft | 415 kts | 281° |
| 2026-04-25 09:06 | 41.14292 | 38.87343 | 36164 ft | 416 kts | 281° |
| 2026-04-25 09:06 | 41.15497 | 38.79835 | 36160 ft | 416 kts | 281° |
| 2026-04-25 09:07 | 41.16700 | 38.72310 | 36160 ft | 417 kts | 281° |
| 2026-04-25 09:07 | 41.17899 | 38.64777 | 36156 ft | 417 kts | 281° |
| 2026-04-25 09:08 | 41.19095 | 38.57232 | 36164 ft | 418 kts | 281° |
| 2026-04-25 09:08 | 41.20280 | 38.49720 | 36163 ft | 418 kts | 281° |
| 2026-04-25 09:09 | 41.21469 | 38.42143 | 36161 ft | 419 kts | 281° |
| 2026-04-25 09:09 | 41.22655 | 38.34557 | 36158 ft | 419 kts | 281° |
| 2026-04-25 09:10 | 41.23837 | 38.26961 | 36160 ft | 420 kts | 281° |
| 2026-04-25 09:10 | 41.25015 | 38.19354 | 36158 ft | 421 kts | 281° |
| 2026-04-25 09:11 | 41.26776 | 38.07924 | 36159 ft | 421 kts | 281° |
| 2026-04-25 09:11 | 41.27945 | 38.00287 | 36157 ft | 422 kts | 281° |
| 2026-04-25 09:12 | 41.29110 | 37.92640 | 36154 ft | 422 kts | 281° |
| 2026-04-25 09:12 | 41.30266 | 37.85022 | 36153 ft | 422 kts | 281° |
| 2026-04-25 09:13 | 41.31422 | 37.77365 | 36150 ft | 423 kts | 281° |
| 2026-04-25 09:13 | 41.32576 | 37.69684 | 36150 ft | 423 kts | 281° |
| 2026-04-25 09:14 | 41.33724 | 37.62005 | 36147 ft | 423 kts | 281° |
| 2026-04-25 09:14 | 41.34867 | 37.54319 | 36148 ft | 424 kts | 281° |
| 2026-04-25 09:15 | 41.36007 | 37.46626 | 36141 ft | 424 kts | 281° |
| 2026-04-25 09:15 | 41.37136 | 37.38967 | 36145 ft | 424 kts | 281° |
| 2026-04-25 09:16 | 41.38265 | 37.31263 | 36144 ft | 424 kts | 280° |
| 2026-04-25 09:16 | 41.39393 | 37.23534 | 36141 ft | 425 kts | 280° |
| 2026-04-25 09:17 | 41.41076 | 37.11932 | 36141 ft | 425 kts | 280° |
| 2026-04-25 09:18 | 41.42191 | 37.04197 | 36138 ft | 425 kts | 280° |
| 2026-04-25 09:18 | 41.43300 | 36.96463 | 36137 ft | 425 kts | 280° |
| 2026-04-25 09:19 | 41.44398 | 36.88765 | 36132 ft | 425 kts | 280° |
| 2026-04-25 09:19 | 41.45500 | 36.81011 | 36131 ft | 425 kts | 280° |
| 2026-04-25 09:20 | 41.46597 | 36.73241 | 36130 ft | 426 kts | 280° |
| 2026-04-25 09:20 | 41.47689 | 36.65477 | 36127 ft | 426 kts | 280° |
| 2026-04-25 09:21 | 41.48775 | 36.57706 | 36131 ft | 426 kts | 280° |
| 2026-04-25 09:21 | 41.49849 | 36.49984 | 36130 ft | 426 kts | 280° |
| 2026-04-25 09:22 | 41.50926 | 36.42203 | 36126 ft | 426 kts | 280° |
| 2026-04-25 09:22 | 41.51997 | 36.34424 | 36125 ft | 426 kts | 280° |
| 2026-04-25 09:23 | 41.53064 | 36.26636 | 36124 ft | 426 kts | 279° |
| 2026-04-25 09:23 | 41.54124 | 36.18854 | 36122 ft | 426 kts | 279° |
| 2026-04-25 09:24 | 41.55180 | 36.11062 | 36122 ft | 427 kts | 279° |
| 2026-04-25 09:24 | 41.56230 | 36.03265 | 36116 ft | 427 kts | 279° |
| 2026-04-25 09:25 | 41.57272 | 35.95500 | 36117 ft | 427 kts | 279° |
| 2026-04-25 09:25 | 41.58314 | 35.87686 | 36114 ft | 427 kts | 279° |
| 2026-04-25 09:26 | 41.59351 | 35.79869 | 36120 ft | 427 kts | 279° |
| 2026-04-25 09:26 | 41.60383 | 35.72045 | 36113 ft | 427 kts | 279° |
| 2026-04-25 09:27 | 41.61410 | 35.64213 | 36111 ft | 427 kts | 279° |
| 2026-04-25 09:27 | 41.62419 | 35.56487 | 36114 ft | 428 kts | 279° |
| 2026-04-25 09:28 | 41.63436 | 35.48645 | 36111 ft | 428 kts | 279° |
| 2026-04-25 09:28 | 41.64447 | 35.40813 | 36105 ft | 428 kts | 279° |
| 2026-04-25 09:29 | 41.65447 | 35.33019 | 36113 ft | 428 kts | 279° |
| 2026-04-25 09:29 | 41.66449 | 35.25167 | 36104 ft | 428 kts | 279° |
| 2026-04-25 09:30 | 41.67445 | 35.17315 | 36108 ft | 428 kts | 279° |
| 2026-04-25 09:30 | 41.68438 | 35.09446 | 36102 ft | 428 kts | 279° |
| 2026-04-25 09:31 | 41.69425 | 35.01584 | 36103 ft | 429 kts | 279° |
| 2026-04-25 09:31 | 41.70406 | 34.93715 | 36099 ft | 429 kts | 279° |
| 2026-04-25 09:32 | 41.71381 | 34.85850 | 36107 ft | 429 kts | 279° |
| 2026-04-25 09:32 | 41.72353 | 34.77975 | 36100 ft | 429 kts | 278° |
| 2026-04-25 09:33 | 41.73319 | 34.70091 | 36090 ft | 429 kts | 278° |
| 2026-04-25 09:33 | 41.74118 | 34.63538 | 36093 ft | 429 kts | 278° |
| 2026-04-25 09:34 | 41.75782 | 34.54541 | 36096 ft | 429 kts | 286° |
| 2026-04-25 09:34 | 41.77569 | 34.46891 | 36091 ft | 430 kts | 286° |
| 2026-04-25 09:35 | 41.79054 | 34.40544 | 36094 ft | 429 kts | 286° |
| 2026-04-25 09:35 | 41.80837 | 34.32899 | 36094 ft | 429 kts | 286° |
| 2026-04-25 09:36 | 41.82615 | 34.25257 | 36087 ft | 429 kts | 286° |
| 2026-04-25 09:36 | 41.84385 | 34.17617 | 36089 ft | 429 kts | 286° |
| 2026-04-25 09:37 | 41.86153 | 34.09963 | 36090 ft | 429 kts | 286° |
| 2026-04-25 09:37 | 41.87914 | 34.02311 | 36081 ft | 429 kts | 286° |
| 2026-04-25 09:38 | 41.89658 | 33.94705 | 36087 ft | 429 kts | 286° |
| 2026-04-25 09:38 | 41.91408 | 33.87049 | 36094 ft | 428 kts | 286° |
| 2026-04-25 09:39 | 41.93151 | 33.79402 | 36091 ft | 428 kts | 286° |
| 2026-04-25 09:39 | 41.94887 | 33.71750 | 36090 ft | 428 kts | 285° |
| 2026-04-25 09:40 | 41.97113 | 33.60132 | 36089 ft | 428 kts | 284° |
| 2026-04-25 09:40 | 41.98610 | 33.52392 | 36091 ft | 428 kts | 284° |
| 2026-04-25 09:41 | 42.00105 | 33.44650 | 36091 ft | 428 kts | 284° |
| 2026-04-25 09:41 | 42.01597 | 33.36894 | 36087 ft | 428 kts | 284° |
| 2026-04-25 09:42 | 42.03082 | 33.29138 | 36088 ft | 428 kts | 284° |
| 2026-04-25 09:42 | 42.04551 | 33.21436 | 36085 ft | 428 kts | 284° |
| 2026-04-25 09:43 | 42.06025 | 33.13681 | 36089 ft | 428 kts | 284° |
| 2026-04-25 09:43 | 42.07545 | 33.05934 | 36088 ft | 428 kts | 285° |
| 2026-04-25 09:44 | 42.09135 | 32.98205 | 36089 ft | 428 kts | 285° |
| 2026-04-25 09:44 | 42.10708 | 32.90472 | 36089 ft | 428 kts | 284° |
| 2026-04-25 09:45 | 42.12278 | 32.82723 | 36092 ft | 428 kts | 284° |
| 2026-04-25 09:45 | 42.13833 | 32.75020 | 36094 ft | 428 kts | 284° |
| 2026-04-25 09:46 | 42.15392 | 32.67270 | 36095 ft | 428 kts | 284° |
| 2026-04-25 09:46 | 42.16947 | 32.59520 | 36095 ft | 428 kts | 284° |
| 2026-04-25 09:47 | 42.18499 | 32.51761 | 36094 ft | 428 kts | 284° |
| 2026-04-25 09:47 | 42.20046 | 32.44001 | 36093 ft | 428 kts | 284° |
| 2026-04-25 09:48 | 42.21588 | 32.36236 | 36095 ft | 429 kts | 284° |
| 2026-04-25 09:48 | 42.23126 | 32.28459 | 36091 ft | 429 kts | 284° |
| 2026-04-25 09:49 | 42.24656 | 32.20690 | 36089 ft | 429 kts | 284° |
| 2026-04-25 09:49 | 42.26179 | 32.12907 | 36092 ft | 429 kts | 284° |
| 2026-04-25 09:50 | 42.27704 | 32.05126 | 36094 ft | 428 kts | 284° |
| 2026-04-25 09:50 | 42.29214 | 31.97391 | 36088 ft | 429 kts | 284° |
| 2026-04-25 09:51 | 42.30730 | 31.89594 | 36089 ft | 429 kts | 284° |
| 2026-04-25 09:51 | 42.32241 | 31.81793 | 36090 ft | 429 kts | 284° |
| 2026-04-25 09:52 | 42.33746 | 31.73991 | 36090 ft | 429 kts | 284° |
| 2026-04-25 09:52 | 42.35245 | 31.66188 | 36088 ft | 429 kts | 284° |
| 2026-04-25 09:53 | 42.36739 | 31.58376 | 36089 ft | 429 kts | 284° |
| 2026-04-25 09:53 | 42.38229 | 31.50562 | 36089 ft | 429 kts | 284° |
| 2026-04-25 09:54 | 42.39706 | 31.42779 | 36090 ft | 430 kts | 284° |
| 2026-04-25 09:54 | 42.41187 | 31.34945 | 36088 ft | 429 kts | 284° |
| 2026-04-25 09:55 | 42.42665 | 31.27090 | 36086 ft | 430 kts | 284° |
| 2026-04-25 09:55 | 42.44138 | 31.19242 | 36089 ft | 431 kts | 284° |
| 2026-04-25 09:56 | 42.45607 | 31.11374 | 36089 ft | 431 kts | 284° |
| 2026-04-25 09:56 | 42.47060 | 31.03539 | 36088 ft | 431 kts | 284° |
| 2026-04-25 09:57 | 42.48517 | 30.95659 | 36089 ft | 432 kts | 284° |
| 2026-04-25 09:57 | 42.49974 | 30.87752 | 36088 ft | 432 kts | 284° |
| 2026-04-25 09:58 | 42.51424 | 30.79840 | 36087 ft | 433 kts | 284° |
| 2026-04-25 09:58 | 42.52872 | 30.71911 | 36086 ft | 433 kts | 285° |
| 2026-04-25 09:59 | 42.54314 | 30.63983 | 36088 ft | 433 kts | 285° |
| 2026-04-25 09:59 | 42.55753 | 30.56032 | 36086 ft | 434 kts | 285° |
| 2026-04-25 10:00 | 42.57187 | 30.48079 | 36082 ft | 434 kts | 285° |
| 2026-04-25 10:00 | 42.58609 | 30.40154 | 36082 ft | 434 kts | 285° |
| 2026-04-25 10:01 | 42.60037 | 30.32173 | 36083 ft | 435 kts | 285° |
| 2026-04-25 10:01 | 42.60931 | 30.28269 | 36071 ft | 433 kts | 297° |
| 2026-04-25 10:01 | 42.62606 | 30.24920 | 36079 ft | 428 kts | 314° |
| 2026-04-25 10:02 | 42.66771 | 30.19066 | 36080 ft | 432 kts | 315° |
| 2026-04-25 10:02 | 42.71040 | 30.13320 | 36083 ft | 432 kts | 316° |
| 2026-04-25 10:03 | 42.75342 | 30.07617 | 36078 ft | 431 kts | 316° |
| 2026-04-25 10:03 | 42.79646 | 30.01917 | 36080 ft | 431 kts | 316° |
| 2026-04-25 10:04 | 42.83916 | 29.96253 | 36076 ft | 431 kts | 316° |
| 2026-04-25 10:04 | 42.88209 | 29.90546 | 36077 ft | 431 kts | 316° |
| 2026-04-25 10:05 | 42.92500 | 29.84830 | 36076 ft | 431 kts | 316° |
| 2026-04-25 10:05 | 42.96784 | 29.79112 | 36078 ft | 431 kts | 316° |
| 2026-04-25 10:06 | 43.01068 | 29.73382 | 36075 ft | 430 kts | 316° |
| 2026-04-25 10:06 | 43.05345 | 29.67651 | 36076 ft | 430 kts | 316° |
| 2026-04-25 10:07 | 43.09614 | 29.61916 | 36075 ft | 430 kts | 316° |
| 2026-04-25 10:07 | 43.13882 | 29.56172 | 36077 ft | 430 kts | 316° |
| 2026-04-25 10:08 | 43.18121 | 29.50456 | 36074 ft | 430 kts | 316° |
| 2026-04-25 10:08 | 43.22379 | 29.44703 | 36073 ft | 430 kts | 316° |
| 2026-04-25 10:09 | 43.26633 | 29.38939 | 36074 ft | 429 kts | 316° |
| 2026-04-25 10:09 | 43.30876 | 29.33180 | 36076 ft | 429 kts | 316° |
| 2026-04-25 10:10 | 43.35122 | 29.27406 | 36073 ft | 429 kts | 316° |
| 2026-04-25 10:10 | 43.39359 | 29.21633 | 36075 ft | 429 kts | 316° |
| 2026-04-25 10:11 | 43.43593 | 29.15851 | 36078 ft | 429 kts | 316° |
| 2026-04-25 10:11 | 43.47823 | 29.10062 | 36072 ft | 428 kts | 316° |
| 2026-04-25 10:12 | 43.52048 | 29.04270 | 36062 ft | 428 kts | 316° |
| 2026-04-25 10:13 | 43.58349 | 28.95607 | 36068 ft | 428 kts | 316° |
| 2026-04-25 10:13 | 43.62564 | 28.89797 | 36075 ft | 427 kts | 316° |
| 2026-04-25 10:14 | 43.66762 | 28.83999 | 36072 ft | 427 kts | 316° |
| 2026-04-25 10:14 | 43.70963 | 28.78185 | 36087 ft | 427 kts | 316° |
| 2026-04-25 10:15 | 43.75152 | 28.72374 | 36074 ft | 426 kts | 316° |
| 2026-04-25 10:15 | 43.79305 | 28.66601 | 36071 ft | 426 kts | 316° |
| 2026-04-25 10:16 | 43.83481 | 28.60787 | 36065 ft | 425 kts | 316° |
| 2026-04-25 10:16 | 43.87647 | 28.54973 | 36063 ft | 425 kts | 316° |
| 2026-04-25 10:17 | 43.91807 | 28.49154 | 36064 ft | 424 kts | 316° |
| 2026-04-25 10:17 | 43.95959 | 28.43333 | 36063 ft | 424 kts | 316° |
| 2026-04-25 10:18 | 44.00112 | 28.37500 | 36060 ft | 424 kts | 316° |
| 2026-04-25 10:18 | 44.04253 | 28.31670 | 36064 ft | 424 kts | 316° |
| 2026-04-25 10:19 | 44.08390 | 28.25834 | 36052 ft | 423 kts | 317° |
| 2026-04-25 10:19 | 44.12518 | 28.20000 | 36057 ft | 423 kts | 317° |
| 2026-04-25 10:20 | 44.16645 | 28.14153 | 36047 ft | 422 kts | 316° |
| 2026-04-25 10:20 | 44.20734 | 28.08347 | 36052 ft | 422 kts | 317° |
| 2026-04-25 10:21 | 44.24843 | 28.02502 | 36043 ft | 421 kts | 317° |
| 2026-04-25 10:21 | 44.28948 | 27.96650 | 36054 ft | 421 kts | 317° |
| 2026-04-25 10:22 | 44.32352 | 27.91787 | 36048 ft | 421 kts | 317° |
| 2026-04-25 10:22 | 44.36447 | 27.85926 | 36054 ft | 421 kts | 317° |
| 2026-04-25 10:23 | 44.40534 | 27.80065 | 36049 ft | 420 kts | 317° |
| 2026-04-25 10:23 | 44.44611 | 27.74205 | 36054 ft | 420 kts | 317° |
| 2026-04-25 10:24 | 44.48652 | 27.68383 | 36047 ft | 419 kts | 317° |
| 2026-04-25 10:24 | 44.52717 | 27.62516 | 36052 ft | 419 kts | 317° |
| 2026-04-25 10:25 | 44.56775 | 27.56645 | 36051 ft | 419 kts | 317° |
| 2026-04-25 10:25 | 44.60833 | 27.50763 | 36054 ft | 419 kts | 317° |
| 2026-04-25 10:26 | 44.64882 | 27.44880 | 36050 ft | 418 kts | 317° |
| 2026-04-25 10:26 | 44.68921 | 27.39001 | 36048 ft | 418 kts | 317° |
| 2026-04-25 10:27 | 44.72960 | 27.33107 | 36044 ft | 418 kts | 317° |
| 2026-04-25 10:27 | 44.76992 | 27.27213 | 36049 ft | 418 kts | 317° |
| 2026-04-25 10:28 | 44.81019 | 27.21312 | 36044 ft | 417 kts | 317° |
| 2026-04-25 10:28 | 44.85022 | 27.15434 | 36052 ft | 417 kts | 317° |
| 2026-04-25 10:29 | 44.89044 | 27.09515 | 36046 ft | 417 kts | 317° |
| 2026-04-25 10:29 | 44.93058 | 27.03596 | 36048 ft | 417 kts | 317° |
| 2026-04-25 10:30 | 44.97067 | 26.97671 | 36043 ft | 417 kts | 317° |
| 2026-04-25 10:30 | 45.01072 | 26.91738 | 36047 ft | 417 kts | 317° |
| 2026-04-25 10:31 | 45.05050 | 26.85834 | 36043 ft | 416 kts | 317° |
| 2026-04-25 10:31 | 45.09037 | 26.79902 | 36043 ft | 416 kts | 317° |
| 2026-04-25 10:32 | 45.13028 | 26.73952 | 36037 ft | 416 kts | 317° |
| 2026-04-25 10:32 | 45.17013 | 26.67999 | 36043 ft | 416 kts | 317° |
| 2026-04-25 10:33 | 45.20990 | 26.62044 | 36034 ft | 416 kts | 317° |
| 2026-04-25 10:33 | 45.24962 | 26.56086 | 36037 ft | 415 kts | 317° |
| 2026-04-25 10:34 | 45.28905 | 26.50156 | 36026 ft | 415 kts | 317° |
| 2026-04-25 10:34 | 45.32864 | 26.44189 | 36043 ft | 415 kts | 317° |
| 2026-04-25 10:35 | 45.36816 | 26.38219 | 36033 ft | 414 kts | 317° |
| 2026-04-25 10:35 | 45.40768 | 26.32237 | 36036 ft | 414 kts | 317° |
| 2026-04-25 10:36 | 45.44711 | 26.26256 | 36023 ft | 414 kts | 317° |
| 2026-04-25 10:36 | 45.48642 | 26.20279 | 36037 ft | 413 kts | 317° |
| 2026-04-25 10:37 | 45.52558 | 26.14313 | 36027 ft | 411 kts | 317° |
| 2026-04-25 10:37 | 45.56446 | 26.08377 | 36028 ft | 412 kts | 317° |
| 2026-04-25 10:38 | 45.60352 | 26.02399 | 36024 ft | 411 kts | 317° |
| 2026-04-25 10:38 | 45.64254 | 25.96414 | 36025 ft | 412 kts | 317° |
| 2026-04-25 10:39 | 45.68180 | 25.90380 | 36026 ft | 412 kts | 317° |
| 2026-04-25 10:39 | 45.72048 | 25.84421 | 36028 ft | 411 kts | 317° |
| 2026-04-25 10:40 | 45.75936 | 25.78418 | 36019 ft | 412 kts | 317° |
| 2026-04-25 10:40 | 45.79824 | 25.72403 | 36021 ft | 411 kts | 317° |
| 2026-04-25 10:41 | 45.83712 | 25.66374 | 36021 ft | 411 kts | 317° |
| 2026-04-25 10:41 | 45.87593 | 25.60344 | 36026 ft | 411 kts | 317° |
| 2026-04-25 10:42 | 45.91472 | 25.54301 | 36019 ft | 411 kts | 317° |
| 2026-04-25 10:42 | 45.95345 | 25.48257 | 36016 ft | 411 kts | 317° |
| 2026-04-25 10:43 | 45.99213 | 25.42205 | 36019 ft | 411 kts | 317° |
| 2026-04-25 10:43 | 46.03079 | 25.36143 | 36015 ft | 411 kts | 317° |
| 2026-04-25 10:44 | 46.06916 | 25.30113 | 36015 ft | 411 kts | 317° |
| 2026-04-25 10:44 | 46.10772 | 25.24041 | 36017 ft | 411 kts | 317° |
| 2026-04-25 10:45 | 46.14628 | 25.17953 | 36012 ft | 411 kts | 317° |
| 2026-04-25 10:45 | 46.18486 | 25.11852 | 36016 ft | 411 kts | 317° |
| 2026-04-25 10:46 | 46.22345 | 25.05733 | 36014 ft | 411 kts | 317° |
| 2026-04-25 10:46 | 46.26195 | 24.99615 | 36017 ft | 411 kts | 317° |
| 2026-04-25 10:47 | 46.30042 | 24.93496 | 35839 ft | 410 kts | 313° |
| 2026-04-25 10:47 | 46.31949 | 24.90452 | 36036 ft | 408 kts | 313° |
| 2026-04-25 10:47 | 46.33856 | 24.87402 | 36024 ft | 409 kts | 313° |
| 2026-04-25 10:48 | 46.37627 | 24.81366 | 36193 ft | 406 kts | 314° |
| 2026-04-25 10:48 | 46.39525 | 24.78313 | 36045 ft | 410 kts | 317° |
| 2026-04-25 10:48 | 46.41445 | 24.75241 | 35986 ft | 410 kts | 317° |
| 2026-04-25 10:49 | 46.45277 | 24.69085 | 36001 ft | 412 kts | 317° |
| 2026-04-25 10:49 | 46.49109 | 24.62913 | 35996 ft | 411 kts | 317° |
| 2026-04-25 10:50 | 46.52935 | 24.56736 | 35996 ft | 411 kts | 317° |
| 2026-04-25 10:50 | 46.56756 | 24.50553 | 35990 ft | 411 kts | 317° |
| 2026-04-25 10:51 | 46.60576 | 24.44358 | 35998 ft | 412 kts | 317° |
| 2026-04-25 10:51 | 46.64396 | 24.38150 | 35994 ft | 412 kts | 317° |
| 2026-04-25 10:52 | 46.68208 | 24.31938 | 35995 ft | 412 kts | 317° |
| 2026-04-25 10:52 | 46.72001 | 24.25746 | 35996 ft | 412 kts | 317° |
| 2026-04-25 10:53 | 46.75811 | 24.19509 | 35994 ft | 412 kts | 317° |
| 2026-04-25 10:53 | 46.79621 | 24.13260 | 35990 ft | 412 kts | 317° |
| 2026-04-25 10:54 | 46.83430 | 24.06997 | 35991 ft | 412 kts | 317° |
| 2026-04-25 10:54 | 46.87236 | 24.00724 | 35989 ft | 412 kts | 317° |
| 2026-04-25 10:55 | 46.91041 | 23.94438 | 35989 ft | 413 kts | 317° |
| 2026-04-25 10:55 | 46.94845 | 23.88140 | 35992 ft | 413 kts | 317° |
| 2026-04-25 10:56 | 46.98624 | 23.81867 | 35992 ft | 413 kts | 317° |
| 2026-04-25 10:56 | 47.02434 | 23.75530 | 35986 ft | 414 kts | 317° |
| 2026-04-25 10:57 | 47.06235 | 23.69192 | 35978 ft | 414 kts | 316° |
| 2026-04-25 10:57 | 47.10038 | 23.62836 | 35976 ft | 415 kts | 317° |
| 2026-04-25 10:58 | 47.13848 | 23.56454 | 35974 ft | 415 kts | 316° |
| 2026-04-25 10:58 | 47.17623 | 23.50115 | 35972 ft | 415 kts | 316° |
| 2026-04-25 10:59 | 47.21420 | 23.43723 | 35986 ft | 416 kts | 316° |
| 2026-04-25 10:59 | 47.25223 | 23.37307 | 35979 ft | 416 kts | 316° |
| 2026-04-25 11:00 | 47.29028 | 23.30871 | 35976 ft | 416 kts | 316° |
| 2026-04-25 11:00 | 47.32824 | 23.24441 | 35967 ft | 415 kts | 316° |
| 2026-04-25 11:01 | 47.36619 | 23.17996 | 35984 ft | 416 kts | 316° |
| 2026-04-25 11:01 | 47.40413 | 23.11537 | 35977 ft | 416 kts | 316° |
| 2026-04-25 11:02 | 47.44204 | 23.05071 | 35971 ft | 417 kts | 316° |
| 2026-04-25 11:02 | 47.47991 | 22.98594 | 35960 ft | 416 kts | 316° |
| 2026-04-25 11:03 | 47.51775 | 22.92109 | 35972 ft | 417 kts | 316° |
| 2026-04-25 11:03 | 47.55532 | 22.85653 | 35965 ft | 416 kts | 316° |
| 2026-04-25 11:04 | 47.59311 | 22.79146 | 35963 ft | 416 kts | 316° |
| 2026-04-25 11:04 | 47.63080 | 22.72641 | 35963 ft | 416 kts | 315° |
| 2026-04-25 11:05 | 47.66843 | 22.66130 | 35964 ft | 416 kts | 315° |
| 2026-04-25 11:05 | 47.70611 | 22.59594 | 35964 ft | 416 kts | 315° |
| 2026-04-25 11:06 | 47.74367 | 22.53064 | 35964 ft | 416 kts | 315° |
| 2026-04-25 11:06 | 47.78100 | 22.46563 | 35961 ft | 415 kts | 316° |
| 2026-04-25 11:06 | 47.80203 | 22.43696 | 35957 ft | 406 kts | 330° |
| 2026-04-25 11:07 | 47.82590 | 22.41461 | 35963 ft | 406 kts | 331° |
| 2026-04-25 11:07 | 47.87399 | 22.37026 | 35960 ft | 406 kts | 332° |
| 2026-04-25 11:08 | 47.92228 | 22.32661 | 35961 ft | 406 kts | 332° |
| 2026-04-25 11:08 | 47.97062 | 22.28304 | 35948 ft | 405 kts | 332° |
| 2026-04-25 11:09 | 48.01076 | 22.24681 | 35950 ft | 405 kts | 332° |
| 2026-04-25 11:09 | 48.06678 | 22.19613 | 35958 ft | 405 kts | 332° |
| 2026-04-25 11:10 | 48.10716 | 22.15953 | 35959 ft | 405 kts | 332° |
| 2026-04-25 11:10 | 48.15534 | 22.11576 | 35953 ft | 405 kts | 332° |
| 2026-04-25 11:11 | 48.20345 | 22.07196 | 35957 ft | 405 kts | 332° |
| 2026-04-25 11:11 | 48.25156 | 22.02807 | 35951 ft | 405 kts | 331° |
| 2026-04-25 11:12 | 48.29959 | 21.98414 | 35952 ft | 404 kts | 331° |
| 2026-04-25 11:12 | 48.34760 | 21.94016 | 35955 ft | 404 kts | 331° |
| 2026-04-25 11:13 | 48.39758 | 21.90215 | 35953 ft | 402 kts | 336° |
| 2026-04-25 11:13 | 48.44776 | 21.86488 | 35955 ft | 402 kts | 335° |
| 2026-04-25 11:14 | 48.49783 | 21.82716 | 35955 ft | 402 kts | 335° |
| 2026-04-25 11:14 | 48.54750 | 21.78959 | 35956 ft | 402 kts | 335° |
| 2026-04-25 11:15 | 48.59778 | 21.75148 | 35953 ft | 401 kts | 335° |
| 2026-04-25 11:15 | 48.64730 | 21.71385 | 35947 ft | 401 kts | 335° |
| 2026-04-25 11:16 | 48.72199 | 21.65694 | 35945 ft | 400 kts | 335° |
| 2026-04-25 11:16 | 48.77176 | 21.61892 | 35943 ft | 400 kts | 334° |
| 2026-04-25 11:17 | 48.82141 | 21.58090 | 35949 ft | 400 kts | 334° |
| 2026-04-25 11:17 | 48.87113 | 21.54273 | 35945 ft | 399 kts | 334° |
| 2026-04-25 11:18 | 48.92037 | 21.50487 | 35943 ft | 399 kts | 334° |
| 2026-04-25 11:18 | 48.96993 | 21.46666 | 35946 ft | 399 kts | 334° |
| 2026-04-25 11:19 | 49.01953 | 21.42833 | 35942 ft | 399 kts | 334° |
| 2026-04-25 11:19 | 49.06911 | 21.38994 | 35935 ft | 399 kts | 334° |
| 2026-04-25 11:20 | 49.11866 | 21.35149 | 35941 ft | 400 kts | 334° |
| 2026-04-25 11:20 | 49.16792 | 21.31317 | 35938 ft | 400 kts | 333° |
| 2026-04-25 11:21 | 49.21779 | 21.27429 | 35938 ft | 400 kts | 333° |
| 2026-04-25 11:21 | 49.26698 | 21.23585 | 35933 ft | 400 kts | 333° |
| 2026-04-25 11:22 | 49.30846 | 21.20337 | 35943 ft | 400 kts | 333° |
| 2026-04-25 11:22 | 49.36595 | 21.15825 | 35944 ft | 400 kts | 333° |
| 2026-04-25 11:23 | 49.41552 | 21.11931 | 35951 ft | 399 kts | 328° |
| 2026-04-25 11:23 | 49.46499 | 21.08026 | 35949 ft | 400 kts | 328° |
| 2026-04-25 11:24 | 49.51449 | 21.04113 | 35942 ft | 399 kts | 328° |
| 2026-04-25 11:24 | 49.56390 | 21.00199 | 35949 ft | 399 kts | 328° |
| 2026-04-25 11:25 | 49.61334 | 20.96274 | 35946 ft | 399 kts | 327° |
| 2026-04-25 11:25 | 49.66266 | 20.92348 | 35949 ft | 399 kts | 327° |
| 2026-04-25 11:26 | 49.71193 | 20.88419 | 35950 ft | 398 kts | 327° |
| 2026-04-25 11:26 | 49.76118 | 20.84483 | 35945 ft | 398 kts | 327° |
| 2026-04-25 11:27 | 49.81005 | 20.80566 | 35949 ft | 398 kts | 327° |
| 2026-04-25 11:27 | 49.85129 | 20.77254 | 35949 ft | 398 kts | 327° |
| 2026-04-25 11:28 | 49.90837 | 20.72661 | 35947 ft | 399 kts | 327° |
| 2026-04-25 11:28 | 49.95764 | 20.68687 | 35951 ft | 399 kts | 327° |
| 2026-04-25 11:29 | 50.00694 | 20.64703 | 35946 ft | 399 kts | 327° |
| 2026-04-25 11:29 | 50.05616 | 20.60715 | 35948 ft | 399 kts | 327° |
| 2026-04-25 11:30 | 50.10800 | 20.57523 | 35935 ft | 414 kts | 347° |
| 2026-04-25 11:30 | 50.16666 | 20.57734 | 35938 ft | 425 kts | 355° |
| 2026-04-25 11:31 | 50.22587 | 20.58268 | 35944 ft | 426 kts | 356° |
| 2026-04-25 11:31 | 50.28510 | 20.58862 | 35942 ft | 427 kts | 356° |
| 2026-04-25 11:32 | 50.34438 | 20.59471 | 35943 ft | 427 kts | 356° |
| 2026-04-25 11:32 | 50.40320 | 20.60080 | 35673 ft | 422 kts | 356° |
| 2026-04-25 11:33 | 50.43281 | 20.60387 | 35071 ft | 420 kts | 355° |
| 2026-04-25 11:33 | 50.46156 | 20.60685 | 34478 ft | 419 kts | 355° |
| 2026-04-25 11:33 | 50.49070 | 20.60989 | 33826 ft | 420 kts | 355° |
| 2026-04-25 11:33 | 50.51987 | 20.61295 | 33081 ft | 420 kts | 355° |
| 2026-04-25 11:34 | 50.54893 | 20.61599 | 32423 ft | 418 kts | 356° |
| 2026-04-25 11:34 | 50.57799 | 20.61903 | 31683 ft | 418 kts | 356° |
| 2026-04-25 11:34 | 50.60725 | 20.62208 | 30975 ft | 424 kts | 357° |
| 2026-04-25 11:34 | 50.63693 | 20.62518 | 30330 ft | 429 kts | 357° |
| 2026-04-25 11:35 | 50.66676 | 20.62831 | 29582 ft | 432 kts | 358° |
| 2026-04-25 11:35 | 50.69689 | 20.63147 | 28791 ft | 435 kts | 358° |
| 2026-04-25 11:35 | 50.72724 | 20.63466 | 28059 ft | 438 kts | 358° |
| 2026-04-25 11:35 | 50.75779 | 20.63787 | 27329 ft | 441 kts | 359° |
| 2026-04-25 11:36 | 50.78806 | 20.64105 | 26565 ft | 443 kts | 359° |
| 2026-04-25 11:36 | 50.81897 | 20.64430 | 25830 ft | 446 kts | 359° |
| 2026-04-25 11:36 | 50.85021 | 20.64760 | 25215 ft | 451 kts | 359° |
| 2026-04-25 11:36 | 50.88159 | 20.65091 | 24613 ft | 453 kts | 359° |
| 2026-04-25 11:37 | 50.91300 | 20.65424 | 24016 ft | 451 kts | 359° |
| 2026-04-25 11:37 | 50.94419 | 20.65754 | 23402 ft | 448 kts | 359° |
| 2026-04-25 11:37 | 50.97520 | 20.66084 | 22714 ft | 444 kts | 359° |
| 2026-04-25 11:37 | 51.00587 | 20.66409 | 22092 ft | 440 kts | 359° |
| 2026-04-25 11:38 | 51.03631 | 20.66733 | 21515 ft | 436 kts | 359° |
| 2026-04-25 11:38 | 51.06638 | 20.67054 | 20933 ft | 431 kts | 359° |
| 2026-04-25 11:38 | 51.09622 | 20.67372 | 20353 ft | 427 kts | 359° |
| 2026-04-25 11:38 | 51.12569 | 20.67687 | 20018 ft | 418 kts | 359° |
| 2026-04-25 11:39 | 51.15425 | 20.67992 | 19784 ft | 405 kts | 359° |
| 2026-04-25 11:39 | 51.18190 | 20.68288 | 19570 ft | 392 kts | 358° |
| 2026-04-25 11:39 | 51.20872 | 20.68576 | 19377 ft | 380 kts | 358° |
| 2026-04-25 11:39 | 51.23470 | 20.68855 | 19191 ft | 369 kts | 358° |
| 2026-04-25 11:40 | 51.25995 | 20.69126 | 19022 ft | 358 kts | 358° |
| 2026-04-25 11:40 | 51.28426 | 20.69470 | 18517 ft | 361 kts | 5° |
| 2026-04-25 11:40 | 51.30895 | 20.70892 | 17614 ft | 383 kts | 21° |
| 2026-04-25 11:40 | 51.33266 | 20.72799 | 16689 ft | 392 kts | 20° |
| 2026-04-25 11:41 | 51.35744 | 20.74728 | 16050 ft | 395 kts | 20° |
| 2026-04-25 11:41 | 51.38208 | 20.76662 | 15545 ft | 392 kts | 20° |
| 2026-04-25 11:41 | 51.40637 | 20.78574 | 15068 ft | 387 kts | 20° |
| 2026-04-25 11:41 | 51.43012 | 20.80449 | 14611 ft | 373 kts | 20° |
| 2026-04-25 11:42 | 51.45285 | 20.82247 | 14194 ft | 357 kts | 20° |
| 2026-04-25 11:42 | 51.47466 | 20.83975 | 13802 ft | 342 kts | 19° |
| 2026-04-25 11:42 | 51.49563 | 20.85636 | 13393 ft | 329 kts | 19° |
| 2026-04-25 11:42 | 51.51570 | 20.87228 | 12995 ft | 317 kts | 19° |
| 2026-04-25 11:43 | 51.53524 | 20.88778 | 12604 ft | 306 kts | 19° |
| 2026-04-25 11:43 | 51.55404 | 20.90271 | 12230 ft | 296 kts | 19° |
| 2026-04-25 11:43 | 51.57225 | 20.91715 | 11850 ft | 287 kts | 19° |
| 2026-04-25 11:43 | 51.58994 | 20.93120 | 11495 ft | 279 kts | 19° |
| 2026-04-25 11:44 | 51.60709 | 20.94486 | 11107 ft | 273 kts | 19° |
| 2026-04-25 11:44 | 51.62413 | 20.95840 | 10570 ft | 273 kts | 19° |
| 2026-04-25 11:44 | 51.64114 | 20.97193 | 10045 ft | 273 kts | 19° |
| 2026-04-25 11:44 | 51.65817 | 20.98548 | 9512 ft | 272 kts | 19° |
| 2026-04-25 11:45 | 51.67518 | 20.99903 | 8936 ft | 272 kts | 20° |
| 2026-04-25 11:45 | 51.69211 | 21.01254 | 8400 ft | 271 kts | 20° |
| 2026-04-25 11:45 | 51.70888 | 21.02593 | 8006 ft | 265 kts | 19° |
| 2026-04-25 11:45 | 51.72521 | 21.03898 | 7697 ft | 260 kts | 19° |
| 2026-04-25 11:46 | 51.74123 | 21.05179 | 7411 ft | 259 kts | 19° |
| 2026-04-25 11:46 | 51.75732 | 21.06467 | 7126 ft | 258 kts | 19° |
| 2026-04-25 11:46 | 51.77337 | 21.07754 | 6852 ft | 257 kts | 19° |
| 2026-04-25 11:46 | 51.78933 | 21.09032 | 6626 ft | 254 kts | 19° |
| 2026-04-25 11:47 | 51.80521 | 21.10300 | 6401 ft | 257 kts | 19° |
| 2026-04-25 11:47 | 51.82140 | 21.11596 | 6133 ft | 263 kts | 19° |
| 2026-04-25 11:47 | 51.83789 | 21.12921 | 5830 ft | 266 kts | 19° |
| 2026-04-25 11:47 | 51.85446 | 21.14254 | 5585 ft | 266 kts | 19° |
| 2026-04-25 11:48 | 51.87081 | 21.15572 | 5450 ft | 258 kts | 19° |
| 2026-04-25 11:48 | 51.88663 | 21.16845 | 5319 ft | 250 kts | 19° |
| 2026-04-25 11:48 | 51.90241 | 21.17912 | 5089 ft | 240 kts | 2° |
| 2026-04-25 11:48 | 51.91867 | 21.17840 | 4764 ft | 232 kts | 339° |
| 2026-04-25 11:49 | 51.93354 | 21.16902 | 4490 ft | 228 kts | 327° |
| 2026-04-25 11:49 | 51.94756 | 21.15697 | 4221 ft | 229 kts | 326° |
| 2026-04-25 11:49 | 51.96164 | 21.14469 | 4020 ft | 229 kts | 327° |
| 2026-04-25 11:49 | 51.97567 | 21.13253 | 3981 ft | 229 kts | 327° |
| 2026-04-25 11:50 | 51.98980 | 21.12026 | 3974 ft | 230 kts | 326° |
| 2026-04-25 11:50 | 52.00400 | 21.10793 | 3699 ft | 232 kts | 326° |
| 2026-04-25 11:50 | 52.01813 | 21.09567 | 3412 ft | 234 kts | 327° |
| 2026-04-25 11:50 | 52.03224 | 21.08345 | 3197 ft | 226 kts | 326° |
| 2026-04-25 11:51 | 52.04590 | 21.07156 | 2850 ft | 219 kts | 326° |
| 2026-04-25 11:51 | 52.05904 | 21.06014 | 2557 ft | 209 kts | 324° |
| 2026-04-25 11:51 | 52.07159 | 21.04926 | 2254 ft | 198 kts | 324° |
| 2026-04-25 11:51 | 52.08298 | 21.03936 | 2035 ft | 173 kts | 323° |
| 2026-04-25 11:52 | 52.09311 | 21.03052 | 1831 ft | 161 kts | 322° |
| 2026-04-25 11:52 | 52.10293 | 21.02192 | 1572 ft | 160 kts | 322° |
| 2026-04-25 11:52 | 52.11272 | 21.01336 | 1361 ft | 159 kts | 323° |
| 2026-04-25 11:52 | 52.12255 | 21.00478 | 1126 ft | 161 kts | 324° |
| 2026-04-25 11:53 | 52.13254 | 20.99634 | 907 ft | 162 kts | 325° |
| 2026-04-25 11:53 | 52.14245 | 20.98768 | 637 ft | 160 kts | 324° |
| 2026-04-25 11:53 | 52.15191 | 20.97915 | 420 ft | 150 kts | 325° |
| 2026-04-25 11:53 | 52.15688 | 20.97489 | 371 ft | 139 kts | 324° |
| 2026-04-25 11:54 | 52.16442 | 20.96808 | 346 ft | 104 kts | 332° |
| 2026-04-25 11:54 | 52.16781 | 20.96548 | 344 ft | 25 kts | 342° |
| 2026-04-25 11:54 | 52.16916 | 20.96511 | 336 ft | 2 kts | 0° |
| 2026-04-25 11:55 | 52.16934 | 20.96511 | 340 ft | 4 kts | 0° |
| 2026-04-25 11:55 | 52.16974 | 20.96511 | 338 ft | 7 kts | 0° |
| 2026-04-25 11:55 | 52.17029 | 20.96512 | 339 ft | 2 kts | 6° |
| 2026-04-25 11:55 | 52.17059 | 20.96523 | 341 ft | 7 kts | 22° |
| 2026-04-25 11:56 | 52.17092 | 20.96623 | 338 ft | 15 kts | 97° |
| 2026-04-25 11:56 | 52.17014 | 20.96731 | 340 ft | 18 kts | 156° |
| 2026-04-25 11:56 | 52.16920 | 20.96811 | 339 ft | 15 kts | 152° |
| 2026-04-25 11:56 | 52.16817 | 20.96899 | 340 ft | 18 kts | 152° |
| 2026-04-25 11:57 | 52.16699 | 20.96998 | 338 ft | 20 kts | 153° |
| 2026-04-25 11:57 | 52.16581 | 20.97105 | 339 ft | 19 kts | 151° |
| 2026-04-25 11:57 | 52.16456 | 20.97215 | 336 ft | 22 kts | 152° |
| 2026-04-25 11:57 | 52.16339 | 20.97315 | 341 ft | 23 kts | 151° |
| 2026-04-25 11:58 | 52.16255 | 20.97389 | 340 ft | 24 kts | 152° |
| 2026-04-25 11:58 | 52.16116 | 20.97509 | 346 ft | 21 kts | 151° |
| 2026-04-25 11:58 | 52.15981 | 20.97628 | 339 ft | 23 kts | 153° |
| 2026-04-25 11:58 | 52.15852 | 20.97743 | 337 ft | 14 kts | 151° |
| 2026-04-25 11:59 | 52.15756 | 20.97826 | 338 ft | 17 kts | 152° |
| 2026-04-25 11:59 | 52.15645 | 20.97922 | 339 ft | 18 kts | 152° |
| 2026-04-25 11:59 | 52.15557 | 20.97997 | 341 ft | 8 kts | 152° |
| 2026-04-25 12:00 | 52.15542 | 20.98040 | 337 ft | 4 kts | 80° |
| 2026-04-25 12:00 | 52.15569 | 20.98112 | 339 ft | 10 kts | 58° |
| 2026-04-25 12:00 | 52.15577 | 20.98142 | 337 ft | 0 kts | 63° |